SondeTracker

Meteorological Radiosondes Database

Operations

Sounding was ended - last measurement: 2022-12-07 13:41:44z

MAP
About Radiosonde

Number: U3035091

Launch Site: Topeka [KS] (US)

Type: RS41-NG

AUX: NO

Frequency: 404.001 MHz

Max Speed: 285 km/h at 11555 m

Average Speed: 142.42 km/h

Max Altitude: 32343 m

Average Ascent Speed: 5.85 m/s

Average Descent Speed: 10.08 m/s

Status: UNKNOWN

Status Changes
Launch Site Type AUX Frequency Status Finder Landing Point Description Changes made by
APRS Statistics

Received Frames: 494

First Frame [UTC]: 2022-12-07 11:30:03z

Last Frame [UTC]: 2022-12-07 13:41:44z

Receivers: KC0BQB, KD0ZJV-10, N0GRP-1

Flight Time: 02:11:41 h

Distance From First Measurement: 292.64 km

Nearest City: Moberly [MO] (US) [16.76 km]

Nearest Hunter: [0.00 km]

Ground Altitude: 240 m

Distance from QTH: 0.00 km

APRS Data
Receiver Number Date/Time [UTC] φ λ Course [°] Speed [km/h] Altitude [m] Description
N0GRP-1U30350912022-12-07 13:41:4439.3797-92.2482801305856Clb=-4.6m/s t=-18.9C h=61.1% p=-1.0hPa 404.001 MHz Type=RS41-NG Radiosonde
N0GRP-1U30350912022-12-07 13:41:1339.3782-92.2575781355963Clb=-4.6m/s t=-19.5C h=64.1% p=-1.0hPa 404.001 MHz Type=RS41-NG Radiosonde
KD0ZJV-10U30350912022-12-07 13:41:0039.3767-92.267791336063Clb=-4.7m/s t=-20.5C h=68.0% p=-1.0hPa 404.001 MHz Type=RS41-NG Radiosonde
N0GRP-1U30350912022-12-07 13:40:4239.376-92.2712791376111Clb=-4.8m/s t=-20.9C h=68.7% p=-1.0hPa 404.001 MHz Type=RS41-NG Radiosonde
KD0ZJV-10U30350912022-12-07 13:40:2939.3749-92.2782771376188Clb=-5.0m/s t=-21.7C h=71.3% p=-1.0hPa 404.001 MHz Type=RS41-NG Radiosonde
N0GRP-1U30350912022-12-07 13:40:1139.3738-92.286791396276Clb=-5.1m/s t=-22.5C h=75.3% p=-1.0hPa 404.001 MHz Type=RS41-NG Radiosonde
KD0ZJV-10U30350912022-12-07 13:39:5839.373-92.2909781396333Clb=-4.9m/s t=-23.1C h=76.7% p=-1.0hPa 404.001 MHz Type=RS41-NG Radiosonde
N0GRP-1U30350912022-12-07 13:39:4039.3717-92.2984771396416Clb=-5.0m/s t=-23.6C h=78.0% p=-1.0hPa 404.001 MHz Type=RS41-NG Radiosonde
KD0ZJV-10U30350912022-12-07 13:39:2639.3707-92.3042771416482Clb=-4.9m/s t=-24.2C h=77.2% p=-1.0hPa 404.001 MHz Type=RS41-NG Radiosonde
N0GRP-1U30350912022-12-07 13:39:0939.368-92.3181751446633Clb=-5.2m/s t=-25.6C h=82.6% p=-1.0hPa 404.001 MHz Type=RS41-NG Radiosonde
KD0ZJV-10U30350912022-12-07 13:38:5539.368-92.3181751446633Clb=-5.2m/s t=-25.6C h=82.6% p=-1.0hPa 404.001 MHz Type=RS41-NG Radiosonde
N0GRP-1U30350912022-12-07 13:38:3839.3663-92.3262751446721Clb=-4.8m/s t=-26.4C h=77.4% p=-1.0hPa 404.001 MHz Type=RS41-NG Radiosonde
KD0ZJV-10U30350912022-12-07 13:38:2439.3652-92.332751396783Clb=-5.4m/s t=-26.4C h=35.4% p=-1.0hPa 404.001 MHz Type=RS41-NG Radiosonde
N0GRP-1U30350912022-12-07 13:38:0739.3634-92.3415771356892Clb=-4.8m/s t=-26.9C h=29.8% p=-1.0hPa 404.001 MHz Type=RS41-NG Radiosonde
KD0ZJV-10U30350912022-12-07 13:37:5339.3627-92.3454761376938Clb=-4.8m/s t=-27.3C h=30.6% p=-1.0hPa 404.001 MHz Type=RS41-NG Radiosonde
N0GRP-1U30350912022-12-07 13:37:3539.3613-92.3531741337027Clb=-4.7m/s t=-28.0C h=20.8% p=-1.0hPa 404.001 MHz Type=RS41-NG Radiosonde
KD0ZJV-10U30350912022-12-07 13:37:2239.3602-92.3588771437091Clb=-5.0m/s t=-27.9C h=10.3% p=-1.0hPa 404.001 MHz Type=RS41-NG Radiosonde
N0GRP-1U30350912022-12-07 13:37:0439.3588-92.3675771577182Clb=-5.3m/s t=-27.7C h=8.6% p=-1.0hPa 404.001 MHz Type=RS41-NG Radiosonde
KD0ZJV-10U30350912022-12-07 13:36:5139.3577-92.374771597252Clb=-5.9m/s t=-27.8C h=9.4% p=-1.0hPa 404.001 MHz Type=RS41-NG Radiosonde
N0GRP-1U30350912022-12-07 13:36:3339.3563-92.3837801597357Clb=-5.7m/s t=-28.7C h=11.7% p=-1.0hPa 404.001 MHz Type=RS41-NG Radiosonde
KD0ZJV-10U30350912022-12-07 13:36:2039.3554-92.3904801617432Clb=-6.0m/s t=-29.4C h=13.2% p=-1.0hPa 404.001 MHz Type=RS41-NG Radiosonde
N0GRP-1U30350912022-12-07 13:36:0239.3543-92.4004831697540Clb=-6.2m/s t=-30.2C h=14.5% p=-1.0hPa 404.001 MHz Type=RS41-NG Radiosonde
KD0ZJV-10U30350912022-12-07 13:35:4939.3537-92.407831747608Clb=-5.7m/s t=-30.2C h=12.2% p=-1.0hPa 404.001 MHz Type=RS41-NG Radiosonde
N0GRP-1U30350912022-12-07 13:35:3139.3524-92.4217811767755Clb=-5.8m/s t=-30.8C h=10.2% p=-1.0hPa 404.001 MHz Type=RS41-NG Radiosonde
KD0ZJV-10U30350912022-12-07 13:35:1839.3521-92.4245801787783Clb=-5.8m/s t=-31.0C h=10.2% p=-1.0hPa 404.001 MHz Type=RS41-NG Radiosonde
N0GRP-1U30350912022-12-07 13:35:0039.3508-92.4343811837880Clb=-5.7m/s t=-31.3C h=8.3% p=-1.0hPa 404.001 MHz Type=RS41-NG Radiosonde
KD0ZJV-10U30350912022-12-07 13:34:4739.3499-92.4426821877958Clb=-5.7m/s t=-31.8C h=8.6% p=-1.0hPa 404.001 MHz Type=RS41-NG Radiosonde
N0GRP-1U30350912022-12-07 13:34:2939.3489-92.4531821938053Clb=-5.6m/s t=-32.1C h=8.6% p=-1.0hPa 404.001 MHz Type=RS41-NG Radiosonde
KD0ZJV-10U30350912022-12-07 13:34:1639.348-92.4618821988127Clb=-5.1m/s t=-32.6C h=9.6% p=-1.0hPa 404.001 MHz Type=RS41-NG Radiosonde
N0GRP-1U30350912022-12-07 13:33:5839.3469-92.4727832068218Clb=-5.8m/s t=-32.8C h=7.9% p=-1.0hPa 404.001 MHz Type=RS41-NG Radiosonde
KD0ZJV-10U30350912022-12-07 13:33:4539.3461-92.4821822118294Clb=-5.5m/s t=-33.1C h=8.8% p=-1.0hPa 404.001 MHz Type=RS41-NG Radiosonde
N0GRP-1U30350912022-12-07 13:33:2739.3449-92.4935822098388Clb=-5.8m/s t=-34.0C h=9.4% p=-1.0hPa 404.001 MHz Type=RS41-NG Radiosonde
KD0ZJV-10U30350912022-12-07 13:33:1439.344-92.503822158467Clb=-6.1m/s t=-34.4C h=8.5% p=-1.0hPa 404.001 MHz Type=RS41-NG Radiosonde
N0GRP-1U30350912022-12-07 13:32:5639.3427-92.5152822118569Clb=-5.9m/s t=-35.4C h=8.9% p=-1.0hPa 404.001 MHz Type=RS41-NG Radiosonde
KD0ZJV-10U30350912022-12-07 13:32:4339.3417-92.524812158641Clb=-5.6m/s t=-35.8C h=7.6% p=-1.0hPa 404.001 MHz Type=RS41-NG Radiosonde
N0GRP-1U30350912022-12-07 13:32:2539.3401-92.5366792208740Clb=-5.6m/s t=-36.4C h=7.3% p=-1.0hPa 404.001 MHz Type=RS41-NG Radiosonde
KD0ZJV-10U30350912022-12-07 13:32:1239.3388-92.5458802228815Clb=-5.9m/s t=-37.0C h=8.3% p=-1.0hPa 404.001 MHz Type=RS41-NG Radiosonde
N0GRP-1U30350912022-12-07 13:31:5439.3365-92.5631802288963Clb=-6.1m/s t=-38.1C h=12.4% p=-1.0hPa 404.001 MHz Type=RS41-NG Radiosonde
KD0ZJV-10U30350912022-12-07 13:31:4039.3359-92.5682802309006Clb=-6.4m/s t=-38.4C h=13.8% p=-1.0hPa 404.001 MHz Type=RS41-NG Radiosonde
N0GRP-1U30350912022-12-07 13:31:2339.3342-92.5815812329118Clb=-6.5m/s t=-39.3C h=13.4% p=-1.0hPa 404.001 MHz Type=RS41-NG Radiosonde
KD0ZJV-10U30350912022-12-07 13:31:0939.3331-92.5911822329201Clb=-6.5m/s t=-39.9C h=15.0% p=-1.0hPa 404.001 MHz Type=RS41-NG Radiosonde
N0GRP-1U30350912022-12-07 13:30:5239.3317-92.6044812359316Clb=-6.5m/s t=-40.9C h=20.1% p=-1.0hPa 404.001 MHz Type=RS41-NG Radiosonde
KD0ZJV-10U30350912022-12-07 13:30:3839.3306-92.6143822419399Clb=-6.3m/s t=-41.2C h=29.8% p=-1.0hPa 404.001 MHz Type=RS41-NG Radiosonde
KD0ZJV-10U30350912022-12-07 13:30:0739.3279-92.6384802469597Clb=-6.8m/s t=-42.9C h=42.6% p=-1.0hPa 404.001 MHz Type=RS41-NG Radiosonde
KD0ZJV-10U30350912022-12-07 13:29:3639.3249-92.6627802469798Clb=-6.5m/s t=-44.2C h=62.9% p=-1.0hPa 404.001 MHz Type=RS41-NG Radiosonde
KD0ZJV-10U30350912022-12-07 13:29:0539.3217-92.6873802529998Clb=-6.6m/s t=-45.3C h=68.9% p=-1.0hPa 404.001 MHz Type=RS41-NG Radiosonde
KD0ZJV-10U30350912022-12-07 13:28:3439.3182-92.71227825610204Clb=-7.2m/s t=-46.9C h=66.7% p=-1.0hPa 404.001 MHz Type=RS41-NG Radiosonde
N0GRP-1U30350912022-12-07 13:28:1639.3159-92.72767825710334Clb=-7.1m/s t=-48.0C h=66.4% p=-1.0hPa 404.001 MHz Type=RS41-NG Radiosonde
KD0ZJV-10U30350912022-12-07 13:28:0339.3144-92.73737925610419Clb=-7.0m/s t=-48.6C h=67.5% p=-1.0hPa 404.001 MHz Type=RS41-NG Radiosonde
N0GRP-1U30350912022-12-07 13:27:4539.3122-92.75227826110545Clb=-7.0m/s t=-49.6C h=70.5% p=-1.0hPa 404.001 MHz Type=RS41-NG Radiosonde
KD0ZJV-10U30350912022-12-07 13:27:3239.3106-92.7637826310635Clb=-6.8m/s t=-50.4C h=73.1% p=-1.0hPa 404.001 MHz Type=RS41-NG Radiosonde
N0GRP-1U30350912022-12-07 13:27:1439.3082-92.7787926110761Clb=-7.4m/s t=-51.6C h=74.2% p=-1.0hPa 404.001 MHz Type=RS41-NG Radiosonde
KD0ZJV-10U30350912022-12-07 13:27:0139.3065-92.78887826310853Clb=-7.3m/s t=-52.4C h=68.6% p=-1.0hPa 404.001 MHz Type=RS41-NG Radiosonde
N0GRP-1U30350912022-12-07 13:26:4339.3041-92.80377726110982Clb=-7.3m/s t=-53.5C h=63.0% p=-1.0hPa 404.001 MHz Type=RS41-NG Radiosonde
KD0ZJV-10U30350912022-12-07 13:26:3039.3021-92.81537726111083Clb=-7.1m/s t=-54.4C h=62.6% p=-1.0hPa 404.001 MHz Type=RS41-NG Radiosonde
N0GRP-1U30350912022-12-07 13:26:1239.2995-92.82937626511209Clb=-7.8m/s t=-55.4C h=59.0% p=-1.0hPa 404.001 MHz Type=RS41-NG Radiosonde
KD0ZJV-10U30350912022-12-07 13:25:5939.2974-92.84097626311315Clb=-7.1m/s t=-56.3C h=58.5% p=-1.0hPa 404.001 MHz Type=RS41-NG Radiosonde
N0GRP-1U30350912022-12-07 13:25:4139.2948-92.8557626311443Clb=-7.4m/s t=-57.3C h=59.7% p=-1.0hPa 404.001 MHz Type=RS41-NG Radiosonde
KC0BQBU30350912022-12-07 13:25:3039.2928-92.86657726511544Clb=-6.7m/s t=-58.0C h=60.0% p=-1.0hPa 404.000 MHz Type=RS41-NG ser=U3035091 Radiosonde auto_rx v1.5.5
KD0ZJV-10U30350912022-12-07 13:25:2839.2928-92.86657726511544Clb=-6.7m/s t=-58.0C h=60.0% p=-1.0hPa 404.001 MHz Type=RS41-NG Radiosonde
N0GRP-1U30350912022-12-07 13:25:1039.2904-92.88157925911664Clb=-7.0m/s t=-59.0C h=53.9% p=-1.0hPa 404.001 MHz Type=RS41-NG Radiosonde
KC0BQBU30350912022-12-07 13:25:0039.2892-92.88988126311731Clb=-6.6m/s t=-59.5C h=46.7% p=-1.0hPa 404.000 MHz Type=RS41-NG ser=U3035091 Radiosonde auto_rx v1.5.5
KD0ZJV-10U30350912022-12-07 13:24:5739.2889-92.89248026111751Clb=-7.3m/s t=-59.4C h=44.6% p=-1.0hPa 404.001 MHz Type=RS41-NG Radiosonde
N0GRP-1U30350912022-12-07 13:24:3939.2871-92.90738125711873Clb=-7.0m/s t=-59.9C h=41.2% p=-1.0hPa 404.001 MHz Type=RS41-NG Radiosonde
KC0BQBU30350912022-12-07 13:24:3039.2862-92.91478025611934Clb=-6.9m/s t=-60.5C h=41.4% p=-1.0hPa 404.000 MHz Type=RS41-NG ser=U3035091 Radiosonde auto_rx v1.5.5
KD0ZJV-10U30350912022-12-07 13:24:2639.2857-92.9187926111962Clb=-6.8m/s t=-60.7C h=41.2% p=-1.0hPa 404.001 MHz Type=RS41-NG Radiosonde
N0GRP-1U30350912022-12-07 13:24:0839.2837-92.93277825912084Clb=-6.8m/s t=-61.7C h=38.1% p=-1.0hPa 404.001 MHz Type=RS41-NG Radiosonde
KC0BQBU30350912022-12-07 13:24:0039.2828-92.93937925912137Clb=-6.9m/s t=-62.1C h=37.9% p=-1.0hPa 404.000 MHz Type=RS41-NG ser=U3035091 Radiosonde auto_rx v1.5.5
KD0ZJV-10U30350912022-12-07 13:23:5539.2822-92.94347825612171Clb=-6.8m/s t=-62.3C h=35.5% p=-1.0hPa 404.001 MHz Type=RS41-NG Radiosonde
N0GRP-1U30350912022-12-07 13:23:3739.2801-92.95827925712302Clb=-6.6m/s t=-62.7C h=28.7% p=-1.0hPa 404.001 MHz Type=RS41-NG Radiosonde
KC0BQBU30350912022-12-07 13:23:3039.279-92.96638025712370Clb=-6.6m/s t=-63.1C h=25.9% p=-1.0hPa 404.000 MHz Type=RS41-NG ser=U3035091 Radiosonde auto_rx v1.5.5
KD0ZJV-10U30350912022-12-07 13:23:2439.2787-92.96878025612390Clb=-6.6m/s t=-63.2C h=25.0% p=-1.0hPa 404.001 MHz Type=RS41-NG Radiosonde
N0GRP-1U30350912022-12-07 13:23:0539.2767-92.98358026112512Clb=-6.6m/s t=-63.9C h=19.7% p=-1.0hPa 404.001 MHz Type=RS41-NG Radiosonde
KD0ZJV-10U30350912022-12-07 13:22:5339.2754-92.99418124812613Clb=-8.3m/s t=-64.1C h=14.4% p=-1.0hPa 404.001 MHz Type=RS41-NG Radiosonde
N0GRP-1U30350912022-12-07 13:22:3439.2738-93.00858124812748Clb=-6.7m/s t=-63.7C h=11.2% p=-1.0hPa 404.001 MHz Type=RS41-NG Radiosonde
KD0ZJV-10U30350912022-12-07 13:22:2239.2728-93.01868324312840Clb=-7.4m/s t=-63.4C h=9.4% p=-1.0hPa 404.001 MHz Type=RS41-NG Radiosonde
N0GRP-1U30350912022-12-07 13:22:0339.2716-93.03218322412965Clb=-7.5m/s t=-62.7C h=7.6% p=-1.0hPa 404.001 MHz Type=RS41-NG Radiosonde
KD0ZJV-10U30350912022-12-07 13:21:5039.2708-93.04138322213057Clb=-7.6m/s t=-62.6C h=6.9% p=-1.0hPa 404.001 MHz Type=RS41-NG Radiosonde
N0GRP-1U30350912022-12-07 13:21:3239.2697-93.05418422213180Clb=-7.1m/s t=-62.6C h=6.7% p=-1.0hPa 404.001 MHz Type=RS41-NG Radiosonde
KC0BQBU30350912022-12-07 13:21:3039.2695-93.05638223013201Clb=-7.3m/s t=-62.4C h=6.4% p=-1.0hPa 404.000 MHz Type=RS41-NG ser=U3035091 Radiosonde auto_rx v1.5.5
KD0ZJV-10U30350912022-12-07 13:21:1939.2687-93.06338022013297Clb=-10.8m/s t=-62.5C h=5.8% p=-1.0hPa 404.001 MHz Type=RS41-NG Radiosonde
N0GRP-1U30350912022-12-07 13:21:0139.2671-93.07567721113449Clb=-6.4m/s t=-62.6C h=5.6% p=-1.0hPa 404.001 MHz Type=RS41-NG Radiosonde
KC0BQBU30350912022-12-07 13:21:0039.2668-93.0777920913462Clb=-7.6m/s t=-62.7C h=5.6% p=-1.0hPa 404.000 MHz Type=RS41-NG ser=U3035091 Radiosonde auto_rx v1.5.5
KD0ZJV-10U30350912022-12-07 13:20:4839.2658-93.08458022213539Clb=-7.2m/s t=-62.7C h=5.3% p=-1.0hPa 404.001 MHz Type=RS41-NG Radiosonde
N0GRP-1U30350912022-12-07 13:20:3239.2642-93.0978021713668Clb=-7.1m/s t=-63.5C h=5.4% p=-1.0hPa 404.001 MHz Type=RS41-NG Radiosonde
KC0BQBU30350912022-12-07 13:20:3139.2641-93.09767921713675Clb=-7.9m/s t=-63.5C h=5.3% p=-1.0hPa 404.000 MHz Type=RS41-NG ser=U3035091 Radiosonde auto_rx v1.5.5
KD0ZJV-10U30350912022-12-07 13:20:1739.263-93.10618121113764Clb=-7.6m/s t=-63.7C h=5.2% p=-1.0hPa 404.001 MHz Type=RS41-NG Radiosonde
KC0BQBU30350912022-12-07 13:20:0039.2617-93.11888422413902Clb=-7.2m/s t=-63.4C h=5.1% p=-1.0hPa 404.000 MHz Type=RS41-NG ser=U3035091 Radiosonde auto_rx v1.5.5
N0GRP-1U30350912022-12-07 13:19:5939.2617-93.11888422413902Clb=-7.2m/s t=-63.4C h=5.1% p=-1.0hPa 404.001 MHz Type=RS41-NG Radiosonde
KD0ZJV-10U30350912022-12-07 13:19:4639.2612-93.12778820214000Clb=-7.8m/s t=-62.6C h=4.7% p=-1.0hPa 404.001 MHz Type=RS41-NG Radiosonde
KC0BQBU30350912022-12-07 13:19:3039.2611-93.13898920214127Clb=-7.3m/s t=-62.6C h=4.7% p=-1.0hPa 404.000 MHz Type=RS41-NG ser=U3035091 Radiosonde auto_rx v1.5.5
N0GRP-1U30350912022-12-07 13:19:2839.2611-93.13968920414135Clb=-7.5m/s t=-62.6C h=4.7% p=-1.0hPa 404.001 MHz Type=RS41-NG Radiosonde
KD0ZJV-10U30350912022-12-07 13:19:1539.2608-93.14798620614231Clb=-7.4m/s t=-63.0C h=4.7% p=-1.0hPa 404.001 MHz Type=RS41-NG Radiosonde
KC0BQBU30350912022-12-07 13:19:0039.2604-93.15848720714357Clb=-8.0m/s t=-63.2C h=4.7% p=-1.0hPa 404.000 MHz Type=RS41-NG ser=U3035091 Radiosonde auto_rx v1.5.5
N0GRP-1U30350912022-12-07 13:18:5739.2604-93.15978720414373Clb=-7.3m/s t=-63.4C h=4.7% p=-1.0hPa 404.001 MHz Type=RS41-NG Radiosonde
KD0ZJV-10U30350912022-12-07 13:18:4439.2602-93.16828920414476Clb=-8.2m/s t=-64.1C h=4.8% p=-1.0hPa 404.001 MHz Type=RS41-NG Radiosonde
KC0BQBU30350912022-12-07 13:18:3039.2602-93.17829020614604Clb=-8.2m/s t=-64.8C h=5.0% p=-1.0hPa 404.000 MHz Type=RS41-NG ser=U3035091 Radiosonde auto_rx v1.5.5
N0GRP-1U30350912022-12-07 13:18:2639.2602-93.18028920614631Clb=-9.6m/s t=-65.0C h=4.9% p=-1.0hPa 404.001 MHz Type=RS41-NG Radiosonde
KD0ZJV-10U30350912022-12-07 13:18:1339.2603-93.18948919814765Clb=-8.9m/s t=-65.3C h=5.2% p=-1.0hPa 404.001 MHz Type=RS41-NG Radiosonde
KC0BQBU30350912022-12-07 13:18:0139.2604-93.19829118714907Clb=-11.0m/s t=-65.8C h=5.7% p=-1.0hPa 404.000 MHz Type=RS41-NG ser=U3035091 Radiosonde auto_rx v1.5.5
N0GRP-1U30350912022-12-07 13:17:5539.2605-93.20059117814946Clb=-9.0m/s t=-65.0C h=5.5% p=-1.0hPa 404.001 MHz Type=RS41-NG Radiosonde
KD0ZJV-10U30350912022-12-07 13:17:4239.2604-93.20778816315071Clb=-9.5m/s t=-64.5C h=5.0% p=-1.0hPa 404.001 MHz Type=RS41-NG Radiosonde
KC0BQBU30350912022-12-07 13:17:3139.2602-93.2148716115172Clb=-9.4m/s t=-65.2C h=5.2% p=-1.0hPa 404.000 MHz Type=RS41-NG ser=U3035091 Radiosonde auto_rx v1.5.5
N0GRP-1U30350912022-12-07 13:17:2439.2601-93.2178615615231Clb=-8.9m/s t=-65.5C h=5.3% p=-1.0hPa 404.001 MHz Type=RS41-NG Radiosonde
KD0ZJV-10U30350912022-12-07 13:17:1139.2598-93.22358515915350Clb=-9.2m/s t=-65.5C h=5.0% p=-1.0hPa 404.001 MHz Type=RS41-NG Radiosonde
KC0BQBU30350912022-12-07 13:17:0239.2593-93.22928416315444Clb=-7.8m/s t=-66.1C h=5.4% p=-1.0hPa 404.000 MHz Type=RS41-NG ser=U3035091 Radiosonde auto_rx v1.5.5
N0GRP-1U30350912022-12-07 13:16:5339.259-93.23298216315502Clb=-8.9m/s t=-66.4C h=5.5% p=-1.0hPa 404.001 MHz Type=RS41-NG Radiosonde
KD0ZJV-10U30350912022-12-07 13:16:4039.2584-93.23988416715637Clb=-9.2m/s t=-66.3C h=5.3% p=-1.0hPa 404.001 MHz Type=RS41-NG Radiosonde
KC0BQBU30350912022-12-07 13:16:3139.258-93.24518816315719Clb=-7.0m/s t=-66.3C h=5.2% p=-1.0hPa 404.000 MHz Type=RS41-NG ser=U3035091 Radiosonde auto_rx v1.5.5
N0GRP-1U30350912022-12-07 13:16:2239.2579-93.24928915715791Clb=-8.6m/s t=-66.4C h=4.9% p=-1.0hPa 404.001 MHz Type=RS41-NG Radiosonde
KD0ZJV-10U30350912022-12-07 13:16:0939.2577-93.25558814115896Clb=-8.1m/s t=-67.2C h=5.0% p=-1.0hPa 404.001 MHz Type=RS41-NG Radiosonde
KC0BQBU30350912022-12-07 13:16:0039.2576-93.25978813715968Clb=-7.7m/s t=-67.8C h=5.2% p=-1.0hPa 404.000 MHz Type=RS41-NG ser=U3035091 Radiosonde auto_rx v1.5.5
N0GRP-1U30350912022-12-07 13:15:5039.2575-93.26399114116040Clb=-7.8m/s t=-67.6C h=5.2% p=-1.0hPa 404.001 MHz Type=RS41-NG Radiosonde
KD0ZJV-10U30350912022-12-07 13:15:3839.2573-93.27018114616164Clb=-10.1m/s t=-67.8C h=5.2% p=-1.0hPa 404.001 MHz Type=RS41-NG Radiosonde
KC0BQBU30350912022-12-07 13:15:3039.2572-93.27388515616243Clb=-10.1m/s t=-67.7C h=5.1% p=-1.0hPa 404.000 MHz Type=RS41-NG ser=U3035091 Radiosonde auto_rx v1.5.5
N0GRP-1U30350912022-12-07 13:15:2039.2571-93.27818714416340Clb=-9.7m/s t=-67.8C h=5.2% p=-1.0hPa 404.001 MHz Type=RS41-NG Radiosonde
KD0ZJV-10U30350912022-12-07 13:15:0739.2567-93.2838310016467Clb=-9.4m/s t=-67.3C h=4.9% p=-1.0hPa 404.001 MHz Type=RS41-NG Radiosonde
KC0BQBU30350912022-12-07 13:15:0039.2565-93.28547310716536Clb=-9.3m/s t=-67.2C h=4.9% p=-1.0hPa 404.000 MHz Type=RS41-NG ser=U3035091 Radiosonde auto_rx v1.5.5
N0GRP-1U30350912022-12-07 13:14:4839.2558-93.28927810616633Clb=-9.6m/s t=-67.0C h=4.7% p=-1.0hPa 404.001 MHz Type=RS41-NG Radiosonde
KD0ZJV-10U30350912022-12-07 13:14:3639.255-93.29387910716754Clb=-8.8m/s t=-66.9C h=4.7% p=-1.0hPa 404.001 MHz Type=RS41-NG Radiosonde
KC0BQBU30350912022-12-07 13:14:3039.2546-93.29597911116808Clb=-9.5m/s t=-66.9C h=4.8% p=-1.0hPa 404.000 MHz Type=RS41-NG ser=U3035091 Radiosonde auto_rx v1.5.5
N0GRP-1U30350912022-12-07 13:14:1739.2538-93.30047412416926Clb=-8.8m/s t=-66.5C h=4.4% p=-1.0hPa 404.001 MHz Type=RS41-NG Radiosonde
KD0ZJV-10U30350912022-12-07 13:14:0539.2531-93.30498611317041Clb=-8.9m/s t=-66.6C h=4.4% p=-1.0hPa 404.001 MHz Type=RS41-NG Radiosonde
KC0BQBU30350912022-12-07 13:14:0039.2527-93.30677110717084Clb=-8.9m/s t=-66.7C h=4.4% p=-1.0hPa 404.000 MHz Type=RS41-NG ser=U3035091 Radiosonde auto_rx v1.5.5
N0GRP-1U30350912022-12-07 13:13:5239.2518-93.31157111317207Clb=-8.1m/s t=-67.2C h=4.6% p=-1.0hPa 404.001 MHz Type=RS41-NG Radiosonde
N0GRP-1U30350912022-12-07 13:13:5139.2501-93.32147811317463Clb=-7.5m/s t=-67.2C h=4.5% p=-1.0hPa 404.001 MHz Type=RS41-NG Radiosonde
N0GRP-1U30350912022-12-07 13:13:5039.2491-93.33158610017708Clb=-8.0m/s t=-67.2C h=4.1% p=-1.0hPa 404.001 MHz Type=RS41-NG Radiosonde
N0GRP-1U30350912022-12-07 13:13:4539.2495-93.34159010017947Clb=-8.4m/s t=-68.1C h=4.2% p=-1.0hPa 404.001 MHz Type=RS41-NG Radiosonde
KD0ZJV-10U30350912022-12-07 13:13:3539.2501-93.345310011118058Clb=-8.1m/s t=-67.9C h=4.0% p=-1.0hPa 404.001 MHz Type=RS41-NG Radiosonde
KC0BQBU30350912022-12-07 13:13:3439.2501-93.34579510918066Clb=-7.8m/s t=-67.9C h=4.0% p=-1.0hPa 404.000 MHz Type=RS41-NG ser=U3035091 Radiosonde auto_rx v1.5.5
N0GRP-1U30350912022-12-07 13:13:1939.2507-93.3508929618205Clb=-8.5m/s t=-68.7C h=4.1% p=-1.0hPa 404.001 MHz Type=RS41-NG Radiosonde
KC0BQBU30350912022-12-07 13:13:1039.2511-93.35479511118306Clb=-6.6m/s t=-68.4C h=4.0% p=-1.0hPa 404.000 MHz Type=RS41-NG ser=U3035091 Radiosonde auto_rx v1.5.5
KD0ZJV-10U30350912022-12-07 13:13:0939.2511-93.35479511118306Clb=-6.6m/s t=-68.4C h=4.0% p=-1.0hPa 404.001 MHz Type=RS41-NG Radiosonde
N0GRP-1U30350912022-12-07 13:12:5639.2509-93.3605836318458Clb=-8.0m/s t=-68.1C h=3.8% p=-1.0hPa 404.001 MHz Type=RS41-NG Radiosonde
KC0BQBU30350912022-12-07 13:12:4739.2507-93.363818518556Clb=-8.4m/s t=-67.5C h=3.6% p=-1.0hPa 404.000 MHz Type=RS41-NG ser=U3035091 Radiosonde auto_rx v1.5.5
KD0ZJV-10U30350912022-12-07 13:12:4539.2507-93.3633708518565Clb=-9.6m/s t=-67.3C h=3.5% p=-1.0hPa 404.001 MHz Type=RS41-NG Radiosonde
N0GRP-1U30350912022-12-07 13:12:3039.2496-93.367635618725Clb=-9.9m/s t=-68.3C h=3.5% p=-1.0hPa 404.001 MHz Type=RS41-NG Radiosonde
KC0BQBU30350912022-12-07 13:12:2139.2489-93.3685595018814Clb=-9.4m/s t=-67.8C h=3.2% p=-1.0hPa 404.000 MHz Type=RS41-NG ser=U3035091 Radiosonde auto_rx v1.5.5
KD0ZJV-10U30350912022-12-07 13:12:1939.2487-93.3688605218831Clb=-7.9m/s t=-68.0C h=3.2% p=-1.0hPa 404.001 MHz Type=RS41-NG Radiosonde
N0GRP-1U30350912022-12-07 13:12:0439.2476-93.3716596319006Clb=-8.6m/s t=-69.3C h=3.4% p=-1.0hPa 404.001 MHz Type=RS41-NG Radiosonde
KC0BQBU30350912022-12-07 13:11:5739.2471-93.373585619099Clb=-7.7m/s t=-69.7C h=3.7% p=-1.0hPa 404.000 MHz Type=RS41-NG ser=U3035091 Radiosonde auto_rx v1.5.5
KD0ZJV-10U30350912022-12-07 13:11:5339.2469-93.3736725019134Clb=-8.3m/s t=-69.6C h=3.9% p=-1.0hPa 404.001 MHz Type=RS41-NG Radiosonde
N0GRP-1U30350912022-12-07 13:11:3939.2455-93.3764417819300Clb=-9.5m/s t=-66.6C h=2.9% p=-1.0hPa 404.001 MHz Type=RS41-NG Radiosonde
KC0BQBU30350912022-12-07 13:11:3239.2447-93.3776487819377Clb=-9.6m/s t=-66.4C h=2.9% p=-1.0hPa 404.000 MHz Type=RS41-NG ser=U3035091 Radiosonde auto_rx v1.5.5
KD0ZJV-10U30350912022-12-07 13:11:2739.2443-93.3783646319413Clb=-8.9m/s t=-66.1C h=2.8% p=-1.0hPa 404.001 MHz Type=RS41-NG Radiosonde
N0GRP-1U30350912022-12-07 13:11:1139.2427-93.3824578319587Clb=-7.7m/s t=-65.7C h=2.7% p=-1.0hPa 404.001 MHz Type=RS41-NG Radiosonde
KC0BQBU30350912022-12-07 13:11:0539.2421-93.3839577419650Clb=-8.8m/s t=-65.3C h=2.5% p=-1.0hPa 404.000 MHz Type=RS41-NG ser=U3035091 Radiosonde auto_rx v1.5.5
KD0ZJV-10U30350912022-12-07 13:10:5939.2416-93.3849627019693Clb=-8.7m/s t=-65.5C h=2.5% p=-1.0hPa 404.001 MHz Type=RS41-NG Radiosonde
N0GRP-1U30350912022-12-07 13:10:4439.2401-93.3886606919879Clb=-12.5m/s t=-66.0C h=2.8% p=-1.0hPa 404.001 MHz Type=RS41-NG Radiosonde
KC0BQBU30350912022-12-07 13:10:3939.2396-93.3899627819958Clb=-13.5m/s t=-64.5C h=2.4% p=-1.0hPa 404.000 MHz Type=RS41-NG ser=U3035091 Radiosonde auto_rx v1.5.5
KD0ZJV-10U30350912022-12-07 13:10:3339.2389-93.3914607420050Clb=-13.3m/s t=-65.2C h=2.7% p=-1.0hPa 404.001 MHz Type=RS41-NG Radiosonde
N0GRP-1U30350912022-12-07 13:10:1639.238-93.3957748020313Clb=-17.8m/s t=-63.8C h=2.4% p=-1.0hPa 404.001 MHz Type=RS41-NG Radiosonde
KC0BQBU30350912022-12-07 13:10:1139.2379-93.3968917620379Clb=-10.7m/s t=-63.4C h=2.4% p=-1.0hPa 404.000 MHz Type=RS41-NG ser=U3035091 Radiosonde auto_rx v1.5.5
KD0ZJV-10U30350912022-12-07 13:10:0239.2379-93.39871038720457Clb=-8.8m/s t=-62.8C h=2.1% p=-1.0hPa 404.001 MHz Type=RS41-NG Radiosonde
N0GRP-1U30350912022-12-07 13:09:4339.2387-93.4028976720637Clb=-9.9m/s t=-63.8C h=2.2% p=-1.0hPa 404.001 MHz Type=RS41-NG Radiosonde
KC0BQBU30350912022-12-07 13:09:3939.2389-93.40361127620677Clb=-9.5m/s t=-64.1C h=2.2% p=-1.0hPa 404.000 MHz Type=RS41-NG ser=U3035091 Radiosonde auto_rx v1.5.5
KD0ZJV-10U30350912022-12-07 13:09:2839.2398-93.40661096920826Clb=-12.2m/s t=-65.4C h=2.3% p=-1.0hPa 404.001 MHz Type=RS41-NG Radiosonde
N0GRP-1U30350912022-12-07 13:09:1039.2404-93.40921095720960Clb=-9.4m/s t=-66.4C h=2.5% p=-1.0hPa 404.001 MHz Type=RS41-NG Radiosonde
KC0BQBU30350912022-12-07 13:09:0739.2405-93.40981005920991Clb=-9.3m/s t=-66.7C h=2.6% p=-1.0hPa 404.000 MHz Type=RS41-NG ser=U3035091 Radiosonde auto_rx v1.5.5
KD0ZJV-10U30350912022-12-07 13:08:5539.2408-93.4114955221100Clb=-9.1m/s t=-66.8C h=2.8% p=-1.0hPa 404.001 MHz Type=RS41-NG Radiosonde
N0GRP-1U30350912022-12-07 13:08:3639.2406-93.4142865721291Clb=-11.9m/s t=-64.0C h=2.1% p=-1.0hPa 404.001 MHz Type=RS41-NG Radiosonde
KC0BQBU30350912022-12-07 13:08:3539.2406-93.4146966321313Clb=-10.7m/s t=-64.1C h=2.1% p=-1.0hPa 404.000 MHz Type=RS41-NG ser=U3035091 Radiosonde auto_rx v1.5.5
KD0ZJV-10U30350912022-12-07 13:08:2239.2407-93.4171957621434Clb=-10.8m/s t=-64.6C h=2.2% p=-1.0hPa 404.001 MHz Type=RS41-NG Radiosonde
N0GRP-1U30350912022-12-07 13:08:0339.2409-93.42071006321625Clb=-10.8m/s t=-63.9C h=2.0% p=-1.0hPa 404.001 MHz Type=RS41-NG Radiosonde
KD0ZJV-10U30350912022-12-07 13:07:5039.241-93.4233875921758Clb=-8.9m/s t=-64.4C h=2.1% p=-1.0hPa 404.001 MHz Type=RS41-NG Radiosonde
KC0BQBU30350912022-12-07 13:07:2939.2406-93.4269807221910Clb=-8.4m/s t=-64.3C h=2.1% p=-1.0hPa 404.000 MHz Type=RS41-NG ser=U3035091 Radiosonde auto_rx v1.5.5
N0GRP-1U30350912022-12-07 13:07:2839.2406-93.4272857221918Clb=-8.4m/s t=-64.2C h=2.1% p=-1.0hPa 404.001 MHz Type=RS41-NG Radiosonde
KD0ZJV-10U30350912022-12-07 13:07:1139.2405-93.4299865622021Clb=-8.5m/s t=-64.1C h=2.1% p=-1.0hPa 404.001 MHz Type=RS41-NG Radiosonde
KC0BQBU30350912022-12-07 13:06:4939.2404-93.433915622202Clb=-10.3m/s t=-63.0C h=1.9% p=-1.0hPa 404.000 MHz Type=RS41-NG ser=U3035091 Radiosonde auto_rx v1.5.5
N0GRP-1U30350912022-12-07 13:06:4739.2404-93.4332896122212Clb=-10.8m/s t=-63.0C h=1.8% p=-1.0hPa 404.001 MHz Type=RS41-NG Radiosonde
KD0ZJV-10U30350912022-12-07 13:06:3339.2401-93.4355822822395Clb=-13.2m/s t=-63.2C h=1.8% p=-1.0hPa 404.001 MHz Type=RS41-NG Radiosonde
KC0BQBU30350912022-12-07 13:06:1339.2398-93.4371805422548Clb=-14.1m/s t=-63.1C h=1.8% p=-1.0hPa 404.000 MHz Type=RS41-NG ser=U3035091 Radiosonde auto_rx v1.5.5
N0GRP-1U30350912022-12-07 13:06:0939.2397-93.4375704322576Clb=-12.7m/s t=-63.3C h=1.8% p=-1.0hPa 404.001 MHz Type=RS41-NG Radiosonde
KD0ZJV-10U30350912022-12-07 13:05:5539.2393-93.4394846122745Clb=-13.0m/s t=-64.5C h=2.0% p=-1.0hPa 404.001 MHz Type=RS41-NG Radiosonde
KC0BQBU30350912022-12-07 13:05:3639.2392-93.4424946922918Clb=-11.3m/s t=-63.8C h=2.0% p=-1.0hPa 404.000 MHz Type=RS41-NG ser=U3035091 Radiosonde auto_rx v1.5.5
N0GRP-1U30350912022-12-07 13:05:2939.2392-93.443885622948Clb=-9.8m/s t=-63.8C h=2.0% p=-1.0hPa 404.001 MHz Type=RS41-NG Radiosonde
KD0ZJV-10U30350912022-12-07 13:05:1439.2395-93.44561037423129Clb=-14.4m/s t=-62.8C h=1.9% p=-1.0hPa 404.001 MHz Type=RS41-NG Radiosonde
KC0BQBU30350912022-12-07 13:04:5339.2403-93.44841095423306Clb=-14.0m/s t=-62.0C h=1.8% p=-1.0hPa 404.000 MHz Type=RS41-NG ser=U3035091 Radiosonde auto_rx v1.5.5
N0GRP-1U30350912022-12-07 13:04:4739.2405-93.44891154423357Clb=-12.8m/s t=-61.4C h=1.8% p=-1.0hPa 404.001 MHz Type=RS41-NG Radiosonde
KD0ZJV-10U30350912022-12-07 13:04:3139.2411-93.45131066323526Clb=-13.2m/s t=-59.5C h=1.5% p=-1.0hPa 404.001 MHz Type=RS41-NG Radiosonde
KC0BQBU30350912022-12-07 13:04:1639.2419-93.45441106323726Clb=-12.9m/s t=-59.1C h=1.5% p=-1.0hPa 404.000 MHz Type=RS41-NG ser=U3035091 Radiosonde auto_rx v1.5.5
N0GRP-1U30350912022-12-07 13:04:0939.242-93.4548957423748Clb=-9.1m/s t=-58.9C h=1.5% p=-1.0hPa 404.001 MHz Type=RS41-NG Radiosonde
KD0ZJV-10U30350912022-12-07 13:03:5439.2429-93.45831186923934Clb=-11.8m/s t=-58.3C h=1.3% p=-1.0hPa 404.001 MHz Type=RS41-NG Radiosonde
KC0BQBU30350912022-12-07 13:03:4139.2436-93.45991275724033Clb=-9.8m/s t=-58.9C h=1.3% p=-1.0hPa 404.000 MHz Type=RS41-NG ser=U3035091 Radiosonde auto_rx v1.5.5
N0GRP-1U30350912022-12-07 13:03:3239.244-93.46081164624113Clb=-15.2m/s t=-59.5C h=1.3% p=-1.0hPa 404.001 MHz Type=RS41-NG Radiosonde
KD0ZJV-10U30350912022-12-07 13:03:1539.2449-93.4631285924278Clb=-12.5m/s t=-60.9C h=1.5% p=-1.0hPa 404.001 MHz Type=RS41-NG Radiosonde
KC0BQBU30350912022-12-07 13:03:0239.2455-93.46441014424420Clb=-11.1m/s t=-61.4C h=1.5% p=-1.0hPa 404.000 MHz Type=RS41-NG ser=U3035091 Radiosonde auto_rx v1.5.5
N0GRP-1U30350912022-12-07 13:02:5139.2458-93.46531202024524Clb=-12.5m/s t=-61.6C h=1.6% p=-1.0hPa 404.001 MHz Type=RS41-NG Radiosonde
KD0ZJV-10U30350912022-12-07 13:02:3439.2464-93.46641273524675Clb=-13.4m/s t=-62.0C h=1.7% p=-1.0hPa 404.001 MHz Type=RS41-NG Radiosonde
KC0BQBU30350912022-12-07 13:02:2039.2468-93.4674954324799Clb=-13.0m/s t=-61.5C h=1.7% p=-1.0hPa 404.000 MHz Type=RS41-NG ser=U3035091 Radiosonde auto_rx v1.5.5
N0GRP-1U30350912022-12-07 13:02:0939.247-93.4684903524927Clb=-15.5m/s t=-61.5C h=1.6% p=-1.0hPa 404.001 MHz Type=RS41-NG Radiosonde
KD0ZJV-10U30350912022-12-07 13:01:5339.2468-93.47865025090Clb=-14.8m/s t=-60.7C h=1.6% p=-1.0hPa 404.001 MHz Type=RS41-NG Radiosonde
KC0BQBU30350912022-12-07 13:01:3939.2467-93.4717996325208Clb=-12.1m/s t=-60.1C h=1.5% p=-1.0hPa 404.000 MHz Type=RS41-NG ser=U3035091 Radiosonde auto_rx v1.5.5
N0GRP-1U30350912022-12-07 13:01:2639.2467-93.4737907425332Clb=-16.1m/s t=-60.1C h=1.6% p=-1.0hPa 404.001 MHz Type=RS41-NG Radiosonde
KD0ZJV-10U30350912022-12-07 13:01:0639.2465-93.4769938125537Clb=-21.0m/s t=-57.9C h=1.3% p=-1.0hPa 404.001 MHz Type=RS41-NG Radiosonde
KC0BQBU30350912022-12-07 13:00:5239.2466-93.4787967425661Clb=-16.1m/s t=-57.9C h=1.3% p=-1.0hPa 404.000 MHz Type=RS41-NG ser=U3035091 Radiosonde auto_rx v1.5.5
N0GRP-1U30350912022-12-07 13:00:3439.247-93.48111236325865Clb=-11.1m/s t=-58.2C h=1.4% p=-1.0hPa 404.001 MHz Type=RS41-NG Radiosonde
KD0ZJV-10U30350912022-12-07 13:00:1339.2478-93.48331135726034Clb=-16.3m/s t=-57.8C h=1.3% p=-1.0hPa 404.001 MHz Type=RS41-NG Radiosonde
KC0BQBU30350912022-12-07 13:00:0039.2482-93.48431205626129Clb=-12.6m/s t=-57.5C h=1.3% p=-1.0hPa 404.000 MHz Type=RS41-NG ser=U3035091 Radiosonde auto_rx v1.5.5
N0GRP-1U30350912022-12-07 12:59:4839.2494-93.48661316926326Clb=-13.5m/s t=-57.5C h=1.3% p=-1.0hPa 404.001 MHz Type=RS41-NG Radiosonde
KD0ZJV-10U30350912022-12-07 12:59:3739.2501-93.4885896126486Clb=-14.0m/s t=-57.0C h=1.2% p=-1.0hPa 404.001 MHz Type=RS41-NG Radiosonde
KC0BQBU30350912022-12-07 12:59:3039.2503-93.48961277026577Clb=-14.3m/s t=-56.9C h=1.3% p=-1.0hPa 404.000 MHz Type=RS41-NG ser=U3035091 Radiosonde auto_rx v1.5.5
N0GRP-1U30350912022-12-07 12:59:1739.2509-93.49221065226783Clb=-18.0m/s t=-57.1C h=1.3% p=-1.0hPa 404.001 MHz Type=RS41-NG Radiosonde
KD0ZJV-10U30350912022-12-07 12:59:0439.2515-93.4943996726987Clb=-19.0m/s t=-56.5C h=1.2% p=-1.0hPa 404.001 MHz Type=RS41-NG Radiosonde
KC0BQBU30350912022-12-07 12:59:0039.2517-93.49491086127067Clb=-15.6m/s t=-57.2C h=1.2% p=-1.0hPa 404.000 MHz Type=RS41-NG ser=U3035091 Radiosonde auto_rx v1.5.5
N0GRP-1U30350912022-12-07 12:58:4639.2526-93.49721206127288Clb=-13.9m/s t=-57.8C h=1.4% p=-1.0hPa 404.001 MHz Type=RS41-NG Radiosonde
KD0ZJV-10U30350912022-12-07 12:58:3439.253-93.4998977627489Clb=-16.7m/s t=-56.4C h=1.2% p=-1.0hPa 404.001 MHz Type=RS41-NG Radiosonde
KC0BQBU30350912022-12-07 12:58:3039.253-93.5006897427536Clb=-18.2m/s t=-56.6C h=1.2% p=-1.0hPa 404.000 MHz Type=RS41-NG ser=U3035091 Radiosonde auto_rx v1.5.5
N0GRP-1U30350912022-12-07 12:58:1539.2533-93.5042948927781Clb=-12.8m/s t=-57.6C h=1.3% p=-1.0hPa 404.001 MHz Type=RS41-NG Radiosonde
N0GRP-1U30350912022-12-07 12:58:0539.2548-93.55399212630971Clb=-20.0m/s t=-51.9C h=1.1% p=-1.0hPa 404.001 MHz Type=RS41-NG Radiosonde
KC0BQBU30350912022-12-07 12:57:5939.255-93.55849515931230Clb=-31.7m/s t=-50.9C h=1.0% p=-1.0hPa 404.000 MHz Type=RS41-NG ser=U3035091 Radiosonde auto_rx v1.5.5
N0GRP-1U30350912022-12-07 12:57:5739.2551-93.57049519131858Clb=-24.5m/s t=-49.5C h=0.8% p=-1.0hPa 404.001 MHz Type=RS41-NG Radiosonde
N0GRP-1U30350912022-12-07 12:57:5639.2553-93.58549918732343Clb=9.2m/s t=-51.8C h=1.0% p=-1.0hPa 404.001 MHz Type=RS41-NG Radiosonde
KC0BQBU30350912022-12-07 12:57:5539.2555-93.58949719832294Clb=7.7m/s t=-51.9C h=1.0% p=-1.0hPa 404.000 MHz Type=RS41-NG ser=U3035091 Radiosonde auto_rx v1.5.5
N0GRP-1U30350912022-12-07 12:57:5439.2561-93.60211214832134Clb=7.4m/s t=-51.1C h=1.0% p=-1.0hPa 404.001 MHz Type=RS41-NG Radiosonde
KC0BQBU30350912022-12-07 12:57:5339.2564-93.60438320232109Clb=10.3m/s t=-50.9C h=1.0% p=-1.0hPa 404.000 MHz Type=RS41-NG ser=U3035091 Radiosonde auto_rx v1.5.5
N0GRP-1U30350912022-12-07 12:57:5239.2566-93.61999919331910Clb=7.2m/s t=-49.9C h=0.9% p=-1.0hPa 404.001 MHz Type=RS41-NG Radiosonde
KC0BQBU30350912022-12-07 12:57:5139.2566-93.62069121131901Clb=12.3m/s t=-49.9C h=0.9% p=-1.0hPa 404.000 MHz Type=RS41-NG ser=U3035091 Radiosonde auto_rx v1.5.5
N0GRP-1U30350912022-12-07 12:57:5039.2562-93.635910115931682Clb=12.4m/s t=-49.8C h=0.9% p=-1.0hPa 404.001 MHz Type=RS41-NG Radiosonde
KD0ZJV-10U30350912022-12-07 12:57:4939.2563-93.64139818731606Clb=-1.6m/s t=-50.0C h=0.9% p=-1.0hPa 404.001 MHz Type=RS41-NG Radiosonde
N0GRP-1U30350912022-12-07 12:57:4839.2561-93.65139222231454Clb=3.2m/s t=-50.1C h=0.9% p=-1.0hPa 404.001 MHz Type=RS41-NG Radiosonde
KD0ZJV-10U30350912022-12-07 12:57:4739.2564-93.65749915431372Clb=9.6m/s t=-49.9C h=0.9% p=-1.0hPa 404.001 MHz Type=RS41-NG Radiosonde
N0GRP-1U30350912022-12-07 12:57:4639.2571-93.666410111731236Clb=2.2m/s t=-52.2C h=1.0% p=-1.0hPa 404.001 MHz Type=RS41-NG Radiosonde
KD0ZJV-10U30350912022-12-07 12:57:4539.2574-93.673910817231129Clb=6.9m/s t=-52.1C h=1.0% p=-1.0hPa 404.001 MHz Type=RS41-NG Radiosonde
N0GRP-1U30350912022-12-07 12:57:4439.2579-93.681311512831026Clb=5.7m/s t=-52.4C h=1.0% p=-1.0hPa 404.001 MHz Type=RS41-NG Radiosonde
KD0ZJV-10U30350912022-12-07 12:57:4139.258-93.688410911130925Clb=6.0m/s t=-53.1C h=1.1% p=-1.0hPa 404.001 MHz Type=RS41-NG Radiosonde
N0GRP-1U30350912022-12-07 12:57:2439.2579-93.69617610930823Clb=3.9m/s t=-53.2C h=1.1% p=-1.0hPa 404.001 MHz Type=RS41-NG Radiosonde
KD0ZJV-10U30350912022-12-07 12:56:5939.2579-93.702510910630735Clb=6.1m/s t=-53.3C h=1.0% p=-1.0hPa 404.001 MHz Type=RS41-NG Radiosonde
KC0BQBU30350912022-12-07 12:56:2839.2577-93.71097116730619Clb=9.8m/s t=-53.1C h=1.0% p=-1.0hPa 404.000 MHz Type=RS41-NG ser=U3035091 Radiosonde auto_rx v1.5.5
N0GRP-1U30350912022-12-07 12:56:2639.2577-93.71097116730619Clb=9.8m/s t=-53.1C h=1.0% p=-1.0hPa 404.001 MHz Type=RS41-NG Radiosonde
KD0ZJV-10U30350912022-12-07 12:56:0339.2581-93.7171939630536Clb=2.4m/s t=-53.6C h=1.1% p=-1.0hPa 404.001 MHz Type=RS41-NG Radiosonde
KC0BQBU30350912022-12-07 12:55:3639.2581-93.72437412630428Clb=7.8m/s t=-52.9C h=1.0% p=-1.0hPa 404.000 MHz Type=RS41-NG ser=U3035091 Radiosonde auto_rx v1.5.5
N0GRP-1U30350912022-12-07 12:55:3139.2579-93.72538019130409Clb=7.0m/s t=-52.9C h=1.1% p=-1.0hPa 404.001 MHz Type=RS41-NG Radiosonde
KD0ZJV-10U30350912022-12-07 12:55:1039.2579-93.73137311130321Clb=10.0m/s t=-53.1C h=1.0% p=-1.0hPa 404.001 MHz Type=RS41-NG Radiosonde
KC0BQBU30350912022-12-07 12:54:4539.2572-93.73857315930200Clb=2.5m/s t=-54.0C h=1.1% p=-1.0hPa 404.000 MHz Type=RS41-NG ser=U3035091 Radiosonde auto_rx v1.5.5
N0GRP-1U30350912022-12-07 12:54:4139.2574-93.74021017030172Clb=6.0m/s t=-54.1C h=1.1% p=-1.0hPa 404.001 MHz Type=RS41-NG Radiosonde
KD0ZJV-10U30350912022-12-07 12:54:2039.2567-93.74469814630079Clb=12.9m/s t=-54.2C h=1.1% p=-1.0hPa 404.001 MHz Type=RS41-NG Radiosonde
KC0BQBU30350912022-12-07 12:53:5639.2564-93.74918116529983Clb=6.3m/s t=-54.2C h=1.1% p=-1.0hPa 404.000 MHz Type=RS41-NG ser=U3035091 Radiosonde auto_rx v1.5.5
N0GRP-1U30350912022-12-07 12:53:4839.2566-93.75041167829960Clb=5.8m/s t=-54.2C h=1.1% p=-1.0hPa 404.001 MHz Type=RS41-NG Radiosonde
KD0ZJV-10U30350912022-12-07 12:53:3339.2566-93.75531116929852Clb=9.6m/s t=-54.5C h=1.1% p=-1.0hPa 404.001 MHz Type=RS41-NG Radiosonde
KC0BQBU30350912022-12-07 12:53:0639.2563-93.76086210229727Clb=5.9m/s t=-54.7C h=1.1% p=-1.0hPa 404.000 MHz Type=RS41-NG ser=U3035091 Radiosonde auto_rx v1.5.5
N0GRP-1U30350912022-12-07 12:52:5639.2562-93.76117013729719Clb=9.9m/s t=-54.7C h=1.1% p=-1.0hPa 404.001 MHz Type=RS41-NG Radiosonde
KD0ZJV-10U30350912022-12-07 12:52:3039.2559-93.7655517229616Clb=4.7m/s t=-55.0C h=1.2% p=-1.0hPa 404.001 MHz Type=RS41-NG Radiosonde
KC0BQBU30350912022-12-07 12:52:0339.2554-93.76939910729526Clb=10.4m/s t=-54.9C h=1.2% p=-1.0hPa 404.000 MHz Type=RS41-NG ser=U3035091 Radiosonde auto_rx v1.5.5
N0GRP-1U30350912022-12-07 12:51:4639.2553-93.77076213029475Clb=6.3m/s t=-54.9C h=1.2% p=-1.0hPa 404.001 MHz Type=RS41-NG Radiosonde
KD0ZJV-10U30350912022-12-07 12:51:2439.2556-93.7744974329382Clb=5.5m/s t=-54.6C h=1.2% p=-1.0hPa 404.001 MHz Type=RS41-NG Radiosonde
KC0BQBU30350912022-12-07 12:51:0639.2558-93.77748712629298Clb=2.1m/s t=-54.7C h=1.2% p=-1.0hPa 404.000 MHz Type=RS41-NG ser=U3035091 Radiosonde auto_rx v1.5.5
N0GRP-1U30350912022-12-07 12:50:5239.2563-93.7798510229251Clb=11.5m/s t=-54.3C h=1.1% p=-1.0hPa 404.001 MHz Type=RS41-NG Radiosonde
KD0ZJV-10U30350912022-12-07 12:50:3239.2571-93.78221084129164Clb=-0.5m/s t=-54.4C h=1.2% p=-1.0hPa 404.001 MHz Type=RS41-NG Radiosonde
KC0BQBU30350912022-12-07 12:50:1439.2576-93.78469710629094Clb=9.4m/s t=-54.6C h=1.1% p=-1.0hPa 404.000 MHz Type=RS41-NG ser=U3035091 Radiosonde auto_rx v1.5.5
N0GRP-1U30350912022-12-07 12:49:5839.2584-93.787112411929036Clb=1.1m/s t=-54.6C h=1.1% p=-1.0hPa 404.001 MHz Type=RS41-NG Radiosonde
KD0ZJV-10U30350912022-12-07 12:49:3639.2593-93.790411313028943Clb=5.4m/s t=-54.5C h=1.2% p=-1.0hPa 404.001 MHz Type=RS41-NG Radiosonde
KC0BQBU30350912022-12-07 12:49:1639.2597-93.792210913328899Clb=4.8m/s t=-54.2C h=1.1% p=-1.0hPa 404.000 MHz Type=RS41-NG ser=U3035091 Radiosonde auto_rx v1.5.5
N0GRP-1U30350912022-12-07 12:48:5839.2605-93.79481083128837Clb=9.3m/s t=-54.2C h=1.0% p=-1.0hPa 404.001 MHz Type=RS41-NG Radiosonde
KD0ZJV-10U30350912022-12-07 12:48:3639.2605-93.79831139828759Clb=2.8m/s t=-55.1C h=1.1% p=-1.0hPa 404.001 MHz Type=RS41-NG Radiosonde
KC0BQBU30350912022-12-07 12:48:1939.2605-93.8008915928705Clb=8.8m/s t=-55.6C h=1.1% p=-1.0hPa 404.000 MHz Type=RS41-NG ser=U3035091 Radiosonde auto_rx v1.5.5
N0GRP-1U30350912022-12-07 12:47:5839.2603-93.80336810628643Clb=2.6m/s t=-56.3C h=1.2% p=-1.0hPa 404.001 MHz Type=RS41-NG Radiosonde
KD0ZJV-10U30350912022-12-07 12:47:3439.2604-93.8068967228572Clb=10.9m/s t=-56.8C h=1.3% p=-1.0hPa 404.001 MHz Type=RS41-NG Radiosonde
KC0BQBU30350912022-12-07 12:47:2239.2604-93.8087968028532Clb=6.5m/s t=-57.1C h=1.2% p=-1.0hPa 404.000 MHz Type=RS41-NG ser=U3035091 Radiosonde auto_rx v1.5.5
N0GRP-1U30350912022-12-07 12:46:5539.2601-93.8113917028458Clb=8.3m/s t=-58.1C h=1.5% p=-1.0hPa 404.001 MHz Type=RS41-NG Radiosonde
KD0ZJV-10U30350912022-12-07 12:46:3239.2598-93.8142586328386Clb=2.7m/s t=-57.6C h=1.3% p=-1.0hPa 404.001 MHz Type=RS41-NG Radiosonde
KC0BQBU30350912022-12-07 12:46:2139.2595-93.8163687628335Clb=4.6m/s t=-57.9C h=1.3% p=-1.0hPa 404.000 MHz Type=RS41-NG ser=U3035091 Radiosonde auto_rx v1.5.5
N0GRP-1U30350912022-12-07 12:45:5639.2593-93.81899810728275Clb=2.1m/s t=-57.9C h=1.3% p=-1.0hPa 404.001 MHz Type=RS41-NG Radiosonde
KD0ZJV-10U30350912022-12-07 12:45:3439.259-93.8218694628203Clb=3.6m/s t=-57.7C h=1.3% p=-1.0hPa 404.001 MHz Type=RS41-NG Radiosonde
KC0BQBU30350912022-12-07 12:45:2639.2591-93.823877428176Clb=7.4m/s t=-57.7C h=1.3% p=-1.0hPa 404.000 MHz Type=RS41-NG ser=U3035091 Radiosonde auto_rx v1.5.5
N0GRP-1U30350912022-12-07 12:44:5939.2592-93.8261978128092Clb=2.6m/s t=-58.2C h=1.4% p=-1.0hPa 404.001 MHz Type=RS41-NG Radiosonde
KD0ZJV-10U30350912022-12-07 12:44:3539.2592-93.8288945928021Clb=6.8m/s t=-57.8C h=1.3% p=-1.0hPa 404.001 MHz Type=RS41-NG Radiosonde
KC0BQBU30350912022-12-07 12:44:2739.2593-93.83041033927977Clb=3.5m/s t=-57.8C h=1.4% p=-1.0hPa 404.000 MHz Type=RS41-NG ser=U3035091 Radiosonde auto_rx v1.5.5
N0GRP-1U30350912022-12-07 12:44:0139.2595-93.8332707627901Clb=9.0m/s t=-57.9C h=1.4% p=-1.0hPa 404.001 MHz Type=RS41-NG Radiosonde
KD0ZJV-10U30350912022-12-07 12:43:4839.2597-93.836310110627818Clb=1.4m/s t=-57.7C h=1.4% p=-1.0hPa 404.001 MHz Type=RS41-NG Radiosonde
KC0BQBU30350912022-12-07 12:43:4539.2596-93.8372894627793Clb=4.6m/s t=-57.9C h=1.4% p=-1.0hPa 404.000 MHz Type=RS41-NG ser=U3035091 Radiosonde auto_rx v1.5.5
N0GRP-1U30350912022-12-07 12:43:2439.2602-93.8408955927695Clb=4.0m/s t=-57.2C h=1.4% p=-1.0hPa 404.001 MHz Type=RS41-NG Radiosonde
KD0ZJV-10U30350912022-12-07 12:43:1639.2607-93.84398710227612Clb=6.8m/s t=-57.0C h=1.3% p=-1.0hPa 404.001 MHz Type=RS41-NG Radiosonde
KC0BQBU30350912022-12-07 12:43:1539.2606-93.84451044127593Clb=5.9m/s t=-56.8C h=1.3% p=-1.0hPa 404.000 MHz Type=RS41-NG ser=U3035091 Radiosonde auto_rx v1.5.5
N0GRP-1U30350912022-12-07 12:42:5539.2609-93.84781334827484Clb=9.4m/s t=-56.2C h=1.3% p=-1.0hPa 404.001 MHz Type=RS41-NG Radiosonde
KD0ZJV-10U30350912022-12-07 12:42:3939.2613-93.8507974427382Clb=7.8m/s t=-56.0C h=1.2% p=-1.0hPa 404.001 MHz Type=RS41-NG Radiosonde
N0GRP-1U30350912022-12-07 12:42:1539.2622-93.85391329827255Clb=5.8m/s t=-56.8C h=1.3% p=-1.0hPa 404.001 MHz Type=RS41-NG Radiosonde
KC0BQBU30350912022-12-07 12:42:0139.2632-93.85621303927170Clb=7.4m/s t=-57.0C h=1.3% p=-1.0hPa 404.000 MHz Type=RS41-NG ser=U3035091 Radiosonde auto_rx v1.5.5
KD0ZJV-10U30350912022-12-07 12:42:0039.2634-93.85651439827151Clb=9.9m/s t=-56.9C h=1.3% p=-1.0hPa 404.001 MHz Type=RS41-NG Radiosonde
N0GRP-1U30350912022-12-07 12:41:4139.2649-93.8596997427020Clb=11.2m/s t=-56.4C h=1.3% p=-1.0hPa 404.001 MHz Type=RS41-NG Radiosonde
KC0BQBU30350912022-12-07 12:41:3039.2655-93.86161185626940Clb=8.3m/s t=-56.2C h=1.3% p=-1.0hPa 404.000 MHz Type=RS41-NG ser=U3035091 Radiosonde auto_rx v1.5.5
KD0ZJV-10U30350912022-12-07 12:41:2839.2658-93.86191398126922Clb=6.2m/s t=-56.1C h=1.3% p=-1.0hPa 404.001 MHz Type=RS41-NG Radiosonde
N0GRP-1U30350912022-12-07 12:41:0939.2673-93.86591506526770Clb=3.6m/s t=-55.0C h=1.1% p=-1.0hPa 404.001 MHz Type=RS41-NG Radiosonde
KD0ZJV-10U30350912022-12-07 12:41:0139.291-93.97261164823011Clb=4.8m/s t=-62.2C h=1.9% p=-1.0hPa 404.001 MHz Type=RS41-NG Radiosonde
KC0BQBU30350912022-12-07 12:40:4839.2912-93.97411125022968Clb=3.7m/s t=-62.4C h=1.8% p=-1.0hPa 404.000 MHz Type=RS41-NG ser=U3035091 Radiosonde auto_rx v1.5.5
N0GRP-1U30350912022-12-07 12:40:2339.2915-93.97671085422896Clb=7.7m/s t=-63.0C h=1.9% p=-1.0hPa 404.001 MHz Type=RS41-NG Radiosonde
KD0ZJV-10U30350912022-12-07 12:39:5439.2917-93.9791837022824Clb=6.0m/s t=-63.3C h=1.9% p=-1.0hPa 404.001 MHz Type=RS41-NG Radiosonde
KC0BQBU30350912022-12-07 12:39:4039.2916-93.9802837622790Clb=6.1m/s t=-63.2C h=1.9% p=-1.0hPa 404.000 MHz Type=RS41-NG ser=U3035091 Radiosonde auto_rx v1.5.5
N0GRP-1U30350912022-12-07 12:39:0439.2915-93.9829925922710Clb=9.6m/s t=-63.2C h=2.0% p=-1.0hPa 404.001 MHz Type=RS41-NG Radiosonde
KD0ZJV-10U30350912022-12-07 12:38:3739.2916-93.9853787422641Clb=4.5m/s t=-62.7C h=1.9% p=-1.0hPa 404.001 MHz Type=RS41-NG Radiosonde
KC0BQBU30350912022-12-07 12:38:2539.2917-93.9861924622610Clb=7.1m/s t=-62.5C h=2.0% p=-1.0hPa 404.000 MHz Type=RS41-NG ser=U3035091 Radiosonde auto_rx v1.5.5
N0GRP-1U30350912022-12-07 12:37:5439.2919-93.9888914822517Clb=8.0m/s t=-62.0C h=2.0% p=-1.0hPa 404.001 MHz Type=RS41-NG Radiosonde
KD0ZJV-10U30350912022-12-07 12:37:2639.2921-93.99061205222447Clb=9.1m/s t=-61.5C h=1.9% p=-1.0hPa 404.001 MHz Type=RS41-NG Radiosonde
KC0BQBU30350912022-12-07 12:37:1739.2922-93.9911725922420Clb=6.3m/s t=-61.4C h=1.8% p=-1.0hPa 404.000 MHz Type=RS41-NG ser=U3035091 Radiosonde auto_rx v1.5.5
N0GRP-1U30350912022-12-07 12:36:4339.2922-93.9933973322335Clb=8.3m/s t=-61.7C h=1.8% p=-1.0hPa 404.001 MHz Type=RS41-NG Radiosonde
KD0ZJV-10U30350912022-12-07 12:36:1239.2921-93.9951055422256Clb=9.2m/s t=-62.7C h=2.0% p=-1.0hPa 404.001 MHz Type=RS41-NG Radiosonde
KC0BQBU30350912022-12-07 12:36:0639.2922-93.9958674822231Clb=7.5m/s t=-62.6C h=2.0% p=-1.0hPa 404.000 MHz Type=RS41-NG ser=U3035091 Radiosonde auto_rx v1.5.5
N0GRP-1U30350912022-12-07 12:35:3239.2924-93.9984964822136Clb=5.2m/s t=-63.2C h=2.2% p=-1.0hPa 404.001 MHz Type=RS41-NG Radiosonde
KD0ZJV-10U30350912022-12-07 12:34:5839.2926-94.0005987022069Clb=6.8m/s t=-63.0C h=2.1% p=-1.0hPa 404.001 MHz Type=RS41-NG Radiosonde
KC0BQBU30350912022-12-07 12:34:5539.2927-94.00091075622058Clb=3.2m/s t=-62.9C h=2.1% p=-1.0hPa 404.000 MHz Type=RS41-NG ser=U3035091 Radiosonde auto_rx v1.5.5
N0GRP-1U30350912022-12-07 12:34:1439.2928-94.00441116121957Clb=3.5m/s t=-63.5C h=2.1% p=-1.0hPa 404.001 MHz Type=RS41-NG Radiosonde
KD0ZJV-10U30350912022-12-07 12:33:4539.2927-94.0071925221884Clb=6.2m/s t=-64.0C h=2.2% p=-1.0hPa 404.001 MHz Type=RS41-NG Radiosonde
KC0BQBU30350912022-12-07 12:33:4439.2928-94.0073895721879Clb=3.3m/s t=-64.0C h=2.2% p=-1.0hPa 404.000 MHz Type=RS41-NG ser=U3035091 Radiosonde auto_rx v1.5.5
N0GRP-1U30350912022-12-07 12:33:0339.2924-94.0111995921776Clb=4.8m/s t=-64.7C h=2.4% p=-1.0hPa 404.001 MHz Type=RS41-NG Radiosonde
KC0BQBU30350912022-12-07 12:32:3539.2924-94.0137875221708Clb=7.7m/s t=-64.2C h=2.2% p=-1.0hPa 404.000 MHz Type=RS41-NG ser=U3035091 Radiosonde auto_rx v1.5.5
KD0ZJV-10U30350912022-12-07 12:32:3339.2924-94.0141014421697Clb=4.8m/s t=-64.1C h=2.3% p=-1.0hPa 404.001 MHz Type=RS41-NG Radiosonde
N0GRP-1U30350912022-12-07 12:31:4939.2927-94.01741045221602Clb=8.5m/s t=-64.0C h=2.3% p=-1.0hPa 404.001 MHz Type=RS41-NG Radiosonde
KC0BQBU30350912022-12-07 12:31:2339.2929-94.01931026721540Clb=4.8m/s t=-64.0C h=2.3% p=-1.0hPa 404.000 MHz Type=RS41-NG ser=U3035091 Radiosonde auto_rx v1.5.5
KD0ZJV-10U30350912022-12-07 12:31:1839.2929-94.0195965621534Clb=6.0m/s t=-64.0C h=2.3% p=-1.0hPa 404.001 MHz Type=RS41-NG Radiosonde
N0GRP-1U30350912022-12-07 12:30:3139.2931-94.0233985921426Clb=8.1m/s t=-63.9C h=2.3% p=-1.0hPa 404.001 MHz Type=RS41-NG Radiosonde
KC0BQBU30350912022-12-07 12:30:1039.2931-94.0255918121369Clb=6.1m/s t=-64.1C h=2.4% p=-1.0hPa 404.000 MHz Type=RS41-NG ser=U3035091 Radiosonde auto_rx v1.5.5
KD0ZJV-10U30350912022-12-07 12:30:0139.293-94.0262806121352Clb=6.3m/s t=-64.1C h=2.4% p=-1.0hPa 404.001 MHz Type=RS41-NG Radiosonde
N0GRP-1U30350912022-12-07 12:29:1439.293-94.03925621250Clb=6.5m/s t=-64.2C h=2.3% p=-1.0hPa 404.001 MHz Type=RS41-NG Radiosonde
KC0BQBU30350912022-12-07 12:28:5539.293-94.0315855621202Clb=7.7m/s t=-64.5C h=2.2% p=-1.0hPa 404.000 MHz Type=RS41-NG ser=U3035091 Radiosonde auto_rx v1.5.5
KD0ZJV-10U30350912022-12-07 12:28:4639.293-94.0323803921178Clb=8.2m/s t=-65.8C h=2.4% p=-1.0hPa 404.001 MHz Type=RS41-NG Radiosonde
N0GRP-1U30350912022-12-07 12:27:5739.2932-94.03511053121083Clb=6.9m/s t=-66.5C h=2.7% p=-1.0hPa 404.001 MHz Type=RS41-NG Radiosonde
KC0BQBU30350912022-12-07 12:27:4039.2935-94.03621115621036Clb=7.3m/s t=-66.3C h=2.8% p=-1.0hPa 404.000 MHz Type=RS41-NG ser=U3035091 Radiosonde auto_rx v1.5.5
KD0ZJV-10U30350912022-12-07 12:27:2739.2937-94.03711064421007Clb=4.6m/s t=-66.2C h=2.8% p=-1.0hPa 404.001 MHz Type=RS41-NG Radiosonde
N0GRP-1U30350912022-12-07 12:26:4039.2948-94.04021106120903Clb=4.5m/s t=-65.4C h=2.8% p=-1.0hPa 404.001 MHz Type=RS41-NG Radiosonde
KC0BQBU30350912022-12-07 12:26:2339.2952-94.0415857620860Clb=7.7m/s t=-65.2C h=2.7% p=-1.0hPa 404.000 MHz Type=RS41-NG ser=U3035091 Radiosonde auto_rx v1.5.5
KD0ZJV-10U30350912022-12-07 12:26:0839.2955-94.04271138020826Clb=3.9m/s t=-64.9C h=2.7% p=-1.0hPa 404.001 MHz Type=RS41-NG Radiosonde
N0GRP-1U30350912022-12-07 12:25:2539.2959-94.0469985720700Clb=9.5m/s t=-64.6C h=2.6% p=-1.0hPa 404.001 MHz Type=RS41-NG Radiosonde
KC0BQBU30350912022-12-07 12:25:1039.2962-94.0483846120658Clb=8.1m/s t=-64.8C h=2.8% p=-1.0hPa 404.000 MHz Type=RS41-NG ser=U3035091 Radiosonde auto_rx v1.5.5
KD0ZJV-10U30350912022-12-07 12:24:5039.2961-94.05845420611Clb=11.3m/s t=-64.4C h=2.7% p=-1.0hPa 404.001 MHz Type=RS41-NG Radiosonde
N0GRP-1U30350912022-12-07 12:24:0739.2958-94.0547798720481Clb=7.3m/s t=-64.9C h=2.7% p=-1.0hPa 404.001 MHz Type=RS41-NG Radiosonde
KC0BQBU30350912022-12-07 12:24:0139.2956-94.0557707220456Clb=2.7m/s t=-64.8C h=2.7% p=-1.0hPa 404.000 MHz Type=RS41-NG ser=U3035091 Radiosonde auto_rx v1.5.5
KD0ZJV-10U30350912022-12-07 12:23:5339.2952-94.0579769320410Clb=5.0m/s t=-65.7C h=3.0% p=-1.0hPa 404.001 MHz Type=RS41-NG Radiosonde
N0GRP-1U30350912022-12-07 12:23:4639.2943-94.0629759120303Clb=5.4m/s t=-66.1C h=3.2% p=-1.0hPa 404.001 MHz Type=RS41-NG Radiosonde
KC0BQBU30350912022-12-07 12:23:4339.2942-94.0637767220285Clb=4.7m/s t=-66.2C h=3.3% p=-1.0hPa 404.000 MHz Type=RS41-NG ser=U3035091 Radiosonde auto_rx v1.5.5
KD0ZJV-10U30350912022-12-07 12:23:2839.2935-94.0659608520238Clb=5.3m/s t=-66.0C h=3.3% p=-1.0hPa 404.001 MHz Type=RS41-NG Radiosonde
N0GRP-1U30350912022-12-07 12:23:0239.2921-94.0704786120126Clb=6.2m/s t=-65.7C h=2.8% p=-1.0hPa 404.001 MHz Type=RS41-NG Radiosonde
KC0BQBU30350912022-12-07 12:23:0039.2921-94.0709758720113Clb=4.6m/s t=-65.7C h=2.7% p=-1.0hPa 404.000 MHz Type=RS41-NG ser=U3035091 Radiosonde auto_rx v1.5.5
KD0ZJV-10U30350912022-12-07 12:22:5139.2913-94.073545220059Clb=5.2m/s t=-69.1C h=3.7% p=-1.0hPa 404.001 MHz Type=RS41-NG Radiosonde
N0GRP-1U30350912022-12-07 12:22:4739.2901-94.0767665719956Clb=5.5m/s t=-68.7C h=3.8% p=-1.0hPa 404.001 MHz Type=RS41-NG Radiosonde
KD0ZJV-10U30350912022-12-07 12:22:4339.2893-94.0792575619885Clb=5.2m/s t=-68.1C h=3.6% p=-1.0hPa 404.001 MHz Type=RS41-NG Radiosonde
KC0BQBU30350912022-12-07 12:22:0639.2882-94.0831606719783Clb=3.7m/s t=-67.2C h=3.5% p=-1.0hPa 404.000 MHz Type=RS41-NG ser=U3035091 Radiosonde auto_rx v1.5.5
N0GRP-1U30350912022-12-07 12:22:0339.288-94.0837777619767Clb=2.7m/s t=-67.1C h=3.4% p=-1.0hPa 404.001 MHz Type=RS41-NG Radiosonde
KC0BQBU30350912022-12-07 12:21:5539.2665-94.24128011716633Clb=6.3m/s t=-66.1C h=4.6% p=-1.0hPa 404.000 MHz Type=RS41-NG ser=U3035091 Radiosonde auto_rx v1.5.5
KD0ZJV-10U30350912022-12-07 12:21:5039.2665-94.24168412216627Clb=5.4m/s t=-66.1C h=4.6% p=-1.0hPa 404.001 MHz Type=RS41-NG Radiosonde
N0GRP-1U30350912022-12-07 12:21:1339.2657-94.24888311516523Clb=7.7m/s t=-66.2C h=4.7% p=-1.0hPa 404.001 MHz Type=RS41-NG Radiosonde
KC0BQBU30350912022-12-07 12:20:5239.2653-94.25258311316465Clb=6.5m/s t=-66.0C h=4.7% p=-1.0hPa 404.000 MHz Type=RS41-NG ser=U3035091 Radiosonde auto_rx v1.5.5
KD0ZJV-10U30350912022-12-07 12:20:4639.2652-94.25328110716454Clb=6.6m/s t=-65.9C h=4.7% p=-1.0hPa 404.001 MHz Type=RS41-NG Radiosonde
N0GRP-1U30350912022-12-07 12:20:0639.2645-94.26018012216350Clb=4.3m/s t=-66.0C h=4.7% p=-1.0hPa 404.001 MHz Type=RS41-NG Radiosonde
KC0BQBU30350912022-12-07 12:19:4839.2643-94.26358512816299Clb=6.5m/s t=-66.4C h=5.0% p=-1.0hPa 404.000 MHz Type=RS41-NG ser=U3035091 Radiosonde auto_rx v1.5.5
KD0ZJV-10U30350912022-12-07 12:19:3939.2643-94.26479011916282Clb=4.4m/s t=-66.4C h=5.1% p=-1.0hPa 404.001 MHz Type=RS41-NG Radiosonde
N0GRP-1U30350912022-12-07 12:18:5339.264-94.27279015016174Clb=6.0m/s t=-66.5C h=5.0% p=-1.0hPa 404.001 MHz Type=RS41-NG Radiosonde
KC0BQBU30350912022-12-07 12:18:3739.2639-94.27639013916129Clb=3.8m/s t=-66.5C h=5.3% p=-1.0hPa 404.000 MHz Type=RS41-NG ser=U3035091 Radiosonde auto_rx v1.5.5
KD0ZJV-10U30350912022-12-07 12:18:2539.2638-94.27878313516102Clb=3.5m/s t=-66.4C h=5.1% p=-1.0hPa 404.001 MHz Type=RS41-NG Radiosonde
N0GRP-1U30350912022-12-07 12:17:4839.2635-94.28758615916008Clb=6.0m/s t=-66.7C h=5.1% p=-1.0hPa 404.001 MHz Type=RS41-NG Radiosonde
KC0BQBU30350912022-12-07 12:17:3539.2633-94.29098514815972Clb=4.4m/s t=-66.7C h=5.1% p=-1.0hPa 404.000 MHz Type=RS41-NG ser=U3035091 Radiosonde auto_rx v1.5.5
KD0ZJV-10U30350912022-12-07 12:17:2439.2631-94.29398115915940Clb=5.4m/s t=-67.0C h=5.1% p=-1.0hPa 404.001 MHz Type=RS41-NG Radiosonde
N0GRP-1U30350912022-12-07 12:16:4939.2626-94.30278514415850Clb=4.0m/s t=-66.9C h=5.4% p=-1.0hPa 404.001 MHz Type=RS41-NG Radiosonde
KC0BQBU30350912022-12-07 12:16:3839.2624-94.30578315415819Clb=6.9m/s t=-66.9C h=5.3% p=-1.0hPa 404.000 MHz Type=RS41-NG ser=U3035091 Radiosonde auto_rx v1.5.5
KD0ZJV-10U30350912022-12-07 12:16:2539.2621-94.30928016115783Clb=5.7m/s t=-67.0C h=5.4% p=-1.0hPa 404.001 MHz Type=RS41-NG Radiosonde
N0GRP-1U30350912022-12-07 12:15:5339.2613-94.31848716915688Clb=6.7m/s t=-66.6C h=5.4% p=-1.0hPa 404.001 MHz Type=RS41-NG Radiosonde
KC0BQBU30350912022-12-07 12:15:4539.2612-94.32117714315661Clb=7.6m/s t=-66.5C h=5.2% p=-1.0hPa 404.000 MHz Type=RS41-NG ser=U3035091 Radiosonde auto_rx v1.5.5
KD0ZJV-10U30350912022-12-07 12:15:3039.2607-94.32547716515607Clb=6.5m/s t=-66.4C h=5.2% p=-1.0hPa 404.001 MHz Type=RS41-NG Radiosonde
N0GRP-1U30350912022-12-07 12:14:5639.2593-94.33558017015485Clb=7.9m/s t=-66.5C h=5.2% p=-1.0hPa 404.001 MHz Type=RS41-NG Radiosonde
KC0BQBU30350912022-12-07 12:14:5039.2591-94.33718316715464Clb=4.7m/s t=-66.3C h=5.3% p=-1.0hPa 404.000 MHz Type=RS41-NG ser=U3035091 Radiosonde auto_rx v1.5.5
KD0ZJV-10U30350912022-12-07 12:14:3139.2585-94.34188017015406Clb=6.3m/s t=-66.2C h=5.3% p=-1.0hPa 404.001 MHz Type=RS41-NG Radiosonde
N0GRP-1U30350912022-12-07 12:13:5639.2575-94.35178615415286Clb=7.8m/s t=-65.7C h=5.0% p=-1.0hPa 404.001 MHz Type=RS41-NG Radiosonde
KC0BQBU30350912022-12-07 12:13:5139.2575-94.35288716315273Clb=4.6m/s t=-65.7C h=5.2% p=-1.0hPa 404.000 MHz Type=RS41-NG ser=U3035091 Radiosonde auto_rx v1.5.5
KD0ZJV-10U30350912022-12-07 12:13:3139.257-94.35797816315214Clb=4.5m/s t=-65.5C h=5.0% p=-1.0hPa 404.001 MHz Type=RS41-NG Radiosonde
N0GRP-1U30350912022-12-07 12:12:4839.2563-94.36778915415096Clb=8.3m/s t=-65.5C h=4.8% p=-1.0hPa 404.001 MHz Type=RS41-NG Radiosonde
KC0BQBU30350912022-12-07 12:12:4539.2562-94.36878216115082Clb=7.7m/s t=-65.5C h=4.9% p=-1.0hPa 404.000 MHz Type=RS41-NG ser=U3035091 Radiosonde auto_rx v1.5.5
KD0ZJV-10U30350912022-12-07 12:12:1839.2558-94.37448318015014Clb=8.2m/s t=-65.4C h=4.7% p=-1.0hPa 404.001 MHz Type=RS41-NG Radiosonde
KC0BQBU30350912022-12-07 12:11:3839.2551-94.38598421514889Clb=6.0m/s t=-66.3C h=4.9% p=-1.0hPa 404.000 MHz Type=RS41-NG ser=U3035091 Radiosonde auto_rx v1.5.5
N0GRP-1U30350912022-12-07 12:11:3639.2551-94.38598421514889Clb=6.0m/s t=-66.3C h=4.9% p=-1.0hPa 404.001 MHz Type=RS41-NG Radiosonde
KD0ZJV-10U30350912022-12-07 12:11:1039.2546-94.39448618914807Clb=5.6m/s t=-65.8C h=4.9% p=-1.0hPa 404.001 MHz Type=RS41-NG Radiosonde
KC0BQBU30350912022-12-07 12:10:2939.2538-94.40598621114706Clb=4.4m/s t=-65.7C h=5.1% p=-1.0hPa 404.000 MHz Type=RS41-NG ser=U3035091 Radiosonde auto_rx v1.5.5
N0GRP-1U30350912022-12-07 12:10:2739.2538-94.40658420714700Clb=6.0m/s t=-65.7C h=5.0% p=-1.0hPa 404.001 MHz Type=RS41-NG Radiosonde
KD0ZJV-10U30350912022-12-07 12:09:5739.2531-94.41488420414640Clb=5.1m/s t=-65.4C h=5.0% p=-1.0hPa 404.001 MHz Type=RS41-NG Radiosonde
KC0BQBU30350912022-12-07 12:09:1839.2519-94.42668321714553Clb=6.9m/s t=-64.8C h=5.0% p=-1.0hPa 404.000 MHz Type=RS41-NG ser=U3035091 Radiosonde auto_rx v1.5.5
N0GRP-1U30350912022-12-07 12:09:1339.2517-94.42878521714537Clb=6.1m/s t=-64.6C h=5.0% p=-1.0hPa 404.001 MHz Type=RS41-NG Radiosonde
KD0ZJV-10U30350912022-12-07 12:08:4839.251-94.43618220614481Clb=3.1m/s t=-64.2C h=4.8% p=-1.0hPa 404.001 MHz Type=RS41-NG Radiosonde
KC0BQBU30350912022-12-07 12:08:1439.2499-94.4478020714404Clb=6.4m/s t=-63.6C h=4.9% p=-1.0hPa 404.000 MHz Type=RS41-NG ser=U3035091 Radiosonde auto_rx v1.5.5
N0GRP-1U30350912022-12-07 12:08:0539.2496-94.4498121714388Clb=5.8m/s t=-63.5C h=4.9% p=-1.0hPa 404.001 MHz Type=RS41-NG Radiosonde
KD0ZJV-10U30350912022-12-07 12:07:3939.2486-94.45718320714332Clb=2.0m/s t=-63.3C h=5.2% p=-1.0hPa 404.001 MHz Type=RS41-NG Radiosonde
KC0BQBU30350912022-12-07 12:07:0839.2472-94.46718221514263Clb=5.6m/s t=-63.1C h=5.4% p=-1.0hPa 404.000 MHz Type=RS41-NG ser=U3035091 Radiosonde auto_rx v1.5.5
N0GRP-1U30350912022-12-07 12:07:0039.2468-94.46977620714243Clb=4.7m/s t=-63.0C h=5.5% p=-1.0hPa 404.001 MHz Type=RS41-NG Radiosonde
KD0ZJV-10U30350912022-12-07 12:06:3739.2458-94.47778321114186Clb=5.5m/s t=-62.8C h=5.7% p=-1.0hPa 404.001 MHz Type=RS41-NG Radiosonde
KC0BQBU30350912022-12-07 12:06:0439.2448-94.48698420214115Clb=6.0m/s t=-62.9C h=6.0% p=-1.0hPa 404.000 MHz Type=RS41-NG ser=U3035091 Radiosonde auto_rx v1.5.5
N0GRP-1U30350912022-12-07 12:05:5339.2445-94.49098622214083Clb=5.9m/s t=-63.3C h=6.4% p=-1.0hPa 404.001 MHz Type=RS41-NG Radiosonde
KD0ZJV-10U30350912022-12-07 12:05:2739.2437-94.49918320214016Clb=6.7m/s t=-63.8C h=6.8% p=-1.0hPa 404.001 MHz Type=RS41-NG Radiosonde
KC0BQBU30350912022-12-07 12:05:0339.2426-94.50748320413944Clb=4.7m/s t=-64.1C h=7.3% p=-1.0hPa 404.000 MHz Type=RS41-NG ser=U3035091 Radiosonde auto_rx v1.5.5
N0GRP-1U30350912022-12-07 12:04:4839.2418-94.51238122013898Clb=9.7m/s t=-63.9C h=7.5% p=-1.0hPa 404.001 MHz Type=RS41-NG Radiosonde
KD0ZJV-10U30350912022-12-07 12:04:2139.2405-94.527423713838Clb=5.7m/s t=-63.8C h=7.6% p=-1.0hPa 404.001 MHz Type=RS41-NG Radiosonde
KC0BQBU30350912022-12-07 12:04:0039.2389-94.52937521513761Clb=5.7m/s t=-64.1C h=8.3% p=-1.0hPa 404.000 MHz Type=RS41-NG ser=U3035091 Radiosonde auto_rx v1.5.5
N0GRP-1U30350912022-12-07 12:03:5239.2381-94.53347822613719Clb=6.2m/s t=-64.0C h=8.7% p=-1.0hPa 404.001 MHz Type=RS41-NG Radiosonde
KD0ZJV-10U30350912022-12-07 12:03:4539.2368-94.54197923313642Clb=6.2m/s t=-63.8C h=9.1% p=-1.0hPa 404.001 MHz Type=RS41-NG Radiosonde
KC0BQBU30350912022-12-07 12:03:3739.2355-94.557321913576Clb=7.4m/s t=-63.9C h=10.5% p=-1.0hPa 404.000 MHz Type=RS41-NG ser=U3035091 Radiosonde auto_rx v1.5.5
N0GRP-1U30350912022-12-07 12:03:2839.2348-94.55477221913530Clb=7.6m/s t=-63.9C h=10.5% p=-1.0hPa 404.001 MHz Type=RS41-NG Radiosonde
KD0ZJV-10U30350912022-12-07 12:03:1639.2337-94.56298121313441Clb=5.1m/s t=-63.6C h=11.1% p=-1.0hPa 404.001 MHz Type=RS41-NG Radiosonde
KC0BQBU30350912022-12-07 12:03:0339.2329-94.57068121313372Clb=5.8m/s t=-63.6C h=12.4% p=-1.0hPa 404.000 MHz Type=RS41-NG ser=U3035091 Radiosonde auto_rx v1.5.5
N0GRP-1U30350912022-12-07 12:02:5239.2234-94.67118125712620Clb=8.2m/s t=-64.1C h=30.9% p=-1.0hPa 404.001 MHz Type=RS41-NG Radiosonde
KC0BQBU30350912022-12-07 12:02:5139.2218-94.68367825612515Clb=4.1m/s t=-63.7C h=32.8% p=-1.0hPa 404.000 MHz Type=RS41-NG ser=U3035091 Radiosonde auto_rx v1.5.5
N0GRP-1U30350912022-12-07 12:02:5039.2201-94.69648026112436Clb=5.3m/s t=-63.4C h=35.9% p=-1.0hPa 404.001 MHz Type=RS41-NG Radiosonde
KD0ZJV-10U30350912022-12-07 12:02:4939.2189-94.70527825712380Clb=4.9m/s t=-63.2C h=37.7% p=-1.0hPa 404.001 MHz Type=RS41-NG Radiosonde
KC0BQBU30350912022-12-07 12:02:4739.2186-94.70768124612366Clb=5.5m/s t=-63.2C h=38.6% p=-1.0hPa 404.000 MHz Type=RS41-NG ser=U3035091 Radiosonde auto_rx v1.5.5
N0GRP-1U30350912022-12-07 12:02:2739.2169-94.72048323912295Clb=4.0m/s t=-62.8C h=42.5% p=-1.0hPa 404.001 MHz Type=RS41-NG Radiosonde
KD0ZJV-10U30350912022-12-07 12:02:0739.2155-94.737924612232Clb=3.2m/s t=-62.6C h=45.7% p=-1.0hPa 404.001 MHz Type=RS41-NG Radiosonde
KC0BQBU30350912022-12-07 12:02:0539.2154-94.73158124612220Clb=6.0m/s t=-62.5C h=44.7% p=-1.0hPa 404.000 MHz Type=RS41-NG ser=U3035091 Radiosonde auto_rx v1.5.5
N0GRP-1U30350912022-12-07 12:01:5939.2133-94.74547926712102Clb=6.2m/s t=-62.0C h=45.5% p=-1.0hPa 404.001 MHz Type=RS41-NG Radiosonde
KD0ZJV-10U30350912022-12-07 12:01:5839.2119-94.75528224612025Clb=5.1m/s t=-61.3C h=45.0% p=-1.0hPa 404.001 MHz Type=RS41-NG Radiosonde
N0GRP-1U30350912022-12-07 12:01:5539.2096-94.77238225411906Clb=4.7m/s t=-60.3C h=43.2% p=-1.0hPa 404.001 MHz Type=RS41-NG Radiosonde
KC0BQBU30350912022-12-07 12:01:5439.2085-94.78068126311854Clb=6.6m/s t=-59.9C h=44.8% p=-1.0hPa 404.000 MHz Type=RS41-NG ser=U3035091 Radiosonde auto_rx v1.5.5
N0GRP-1U30350912022-12-07 12:01:5139.2064-94.79828027611750Clb=3.1m/s t=-59.2C h=47.5% p=-1.0hPa 404.001 MHz Type=RS41-NG Radiosonde
KC0BQBU30350912022-12-07 12:01:5039.2054-94.80588125411705Clb=5.5m/s t=-58.9C h=45.7% p=-1.0hPa 404.000 MHz Type=RS41-NG ser=U3035091 Radiosonde auto_rx v1.5.5
N0GRP-1U30350912022-12-07 12:01:4839.2032-94.82238426711606Clb=3.3m/s t=-58.2C h=52.7% p=-1.0hPa 404.001 MHz Type=RS41-NG Radiosonde
KC0BQBU30350912022-12-07 12:01:4739.2019-94.8317728511555Clb=5.7m/s t=-57.8C h=54.4% p=-1.0hPa 404.000 MHz Type=RS41-NG ser=U3035091 Radiosonde auto_rx v1.5.5
N0GRP-1U30350912022-12-07 12:01:4639.1992-94.84827627411410Clb=8.0m/s t=-56.8C h=60.1% p=-1.0hPa 404.001 MHz Type=RS41-NG Radiosonde
KC0BQBU30350912022-12-07 12:01:4539.1977-94.85568026311345Clb=4.4m/s t=-56.2C h=57.7% p=-1.0hPa 404.000 MHz Type=RS41-NG ser=U3035091 Radiosonde auto_rx v1.5.5
KD0ZJV-10U30350912022-12-07 12:01:4339.1972-94.85817228011320Clb=8.3m/s t=-56.0C h=57.2% p=-1.0hPa 404.001 MHz Type=RS41-NG Radiosonde
N0GRP-1U30350912022-12-07 12:01:2539.194-94.87377227411215Clb=4.3m/s t=-55.4C h=61.0% p=-1.0hPa 404.001 MHz Type=RS41-NG Radiosonde
KC0BQBU30350912022-12-07 12:01:1139.1926-94.88037427011170Clb=3.5m/s t=-55.0C h=59.3% p=-1.0hPa 404.000 MHz Type=RS41-NG ser=U3035091 Radiosonde auto_rx v1.5.5
KD0ZJV-10U30350912022-12-07 12:01:0139.192-94.88357725711145Clb=6.9m/s t=-54.8C h=59.9% p=-1.0hPa 404.001 MHz Type=RS41-NG Radiosonde
N0GRP-1U30350912022-12-07 12:00:2439.1886-94.90087225411025Clb=4.6m/s t=-54.1C h=53.8% p=-1.0hPa 404.001 MHz Type=RS41-NG Radiosonde
KC0BQBU30350912022-12-07 12:00:1239.1878-94.90497526111000Clb=6.9m/s t=-53.8C h=54.2% p=-1.0hPa 404.000 MHz Type=RS41-NG ser=U3035091 Radiosonde auto_rx v1.5.5
KD0ZJV-10U30350912022-12-07 11:59:5639.1868-94.90987625710967Clb=3.8m/s t=-53.5C h=57.5% p=-1.0hPa 404.001 MHz Type=RS41-NG Radiosonde
N0GRP-1U30350912022-12-07 11:59:1939.1834-94.92617027210859Clb=6.4m/s t=-52.5C h=57.0% p=-1.0hPa 404.001 MHz Type=RS41-NG Radiosonde
KC0BQBU30350912022-12-07 11:59:0539.1828-94.92947425010825Clb=9.3m/s t=-52.2C h=57.3% p=-1.0hPa 404.000 MHz Type=RS41-NG ser=U3035091 Radiosonde auto_rx v1.5.5
KD0ZJV-10U30350912022-12-07 11:58:5139.1816-94.93537227010780Clb=6.6m/s t=-51.7C h=57.6% p=-1.0hPa 404.001 MHz Type=RS41-NG Radiosonde
N0GRP-1U30350912022-12-07 11:58:1139.1786-94.95017926910684Clb=4.7m/s t=-50.9C h=59.1% p=-1.0hPa 404.001 MHz Type=RS41-NG Radiosonde
KC0BQBU30350912022-12-07 11:58:0139.1778-94.95427327610660Clb=4.3m/s t=-50.6C h=60.9% p=-1.0hPa 404.000 MHz Type=RS41-NG ser=U3035091 Radiosonde auto_rx v1.5.5
KD0ZJV-10U30350912022-12-07 11:57:4339.1764-94.96087627810622Clb=4.2m/s t=-50.3C h=61.9% p=-1.0hPa 404.001 MHz Type=RS41-NG Radiosonde
N0GRP-1U30350912022-12-07 11:57:0039.1733-94.97557527610511Clb=6.4m/s t=-49.3C h=57.4% p=-1.0hPa 404.001 MHz Type=RS41-NG Radiosonde
KC0BQBU30350912022-12-07 11:56:5139.1727-94.97897325410491Clb=6.0m/s t=-49.0C h=56.0% p=-1.0hPa 404.000 MHz Type=RS41-NG ser=U3035091 Radiosonde auto_rx v1.5.5
KD0ZJV-10U30350912022-12-07 11:56:3339.1712-94.98627627010436Clb=6.1m/s t=-48.6C h=57.1% p=-1.0hPa 404.001 MHz Type=RS41-NG Radiosonde
N0GRP-1U30350912022-12-07 11:55:5639.1685-95.0017625410328Clb=6.2m/s t=-47.6C h=56.2% p=-1.0hPa 404.001 MHz Type=RS41-NG Radiosonde
KC0BQBU30350912022-12-07 11:55:5139.1679-95.00357526910308Clb=5.1m/s t=-47.4C h=56.0% p=-1.0hPa 404.000 MHz Type=RS41-NG ser=U3035091 Radiosonde auto_rx v1.5.5
KD0ZJV-10U30350912022-12-07 11:55:3239.1663-95.01177426510250Clb=7.7m/s t=-46.9C h=56.4% p=-1.0hPa 404.001 MHz Type=RS41-NG Radiosonde
N0GRP-1U30350912022-12-07 11:54:5739.1633-95.02738225210132Clb=7.0m/s t=-46.2C h=56.0% p=-1.0hPa 404.001 MHz Type=RS41-NG Radiosonde
KC0BQBU30350912022-12-07 11:54:5439.1633-95.02818324110125Clb=5.4m/s t=-46.1C h=56.6% p=-1.0hPa 404.000 MHz Type=RS41-NG ser=U3035091 Radiosonde auto_rx v1.5.5
KD0ZJV-10U30350912022-12-07 11:54:3639.1618-95.03727725710055Clb=5.3m/s t=-45.5C h=56.8% p=-1.0hPa 404.001 MHz Type=RS41-NG Radiosonde
KC0BQBU30350912022-12-07 11:53:5739.1594-95.0527842419946Clb=5.5m/s t=-44.5C h=59.0% p=-1.0hPa 404.000 MHz Type=RS41-NG ser=U3035091 Radiosonde auto_rx v1.5.5
KD0ZJV-10U30350912022-12-07 11:53:3439.158-95.0623792489868Clb=6.4m/s t=-44.1C h=54.6% p=-1.0hPa 404.001 MHz Type=RS41-NG Radiosonde
KC0BQBU30350912022-12-07 11:52:5939.156-95.0767792529773Clb=7.0m/s t=-43.5C h=53.3% p=-1.0hPa 404.000 MHz Type=RS41-NG ser=U3035091 Radiosonde auto_rx v1.5.5
N0GRP-1U30350912022-12-07 11:52:5739.1559-95.0775762529766Clb=6.5m/s t=-43.5C h=53.2% p=-1.0hPa 404.001 MHz Type=RS41-NG Radiosonde
KD0ZJV-10U30350912022-12-07 11:52:3339.1545-95.087762379707Clb=4.5m/s t=-43.2C h=46.8% p=-1.0hPa 404.001 MHz Type=RS41-NG Radiosonde
KC0BQBU30350912022-12-07 11:52:0039.1528-95.1004802469610Clb=6.6m/s t=-42.3C h=42.4% p=-1.0hPa 404.000 MHz Type=RS41-NG ser=U3035091 Radiosonde auto_rx v1.5.5
N0GRP-1U30350912022-12-07 11:51:5939.1525-95.1026822469591Clb=6.5m/s t=-42.2C h=40.3% p=-1.0hPa 404.001 MHz Type=RS41-NG Radiosonde
KD0ZJV-10U30350912022-12-07 11:51:4539.1513-95.1114802359537Clb=4.0m/s t=-41.7C h=37.3% p=-1.0hPa 404.001 MHz Type=RS41-NG Radiosonde
KC0BQBU30350912022-12-07 11:51:3039.1496-95.1242812509459Clb=5.5m/s t=-41.1C h=36.0% p=-1.0hPa 404.000 MHz Type=RS41-NG ser=U3035091 Radiosonde auto_rx v1.5.5
N0GRP-1U30350912022-12-07 11:51:2739.1493-95.1264832289443Clb=5.4m/s t=-41.0C h=33.8% p=-1.0hPa 404.001 MHz Type=RS41-NG Radiosonde
KD0ZJV-10U30350912022-12-07 11:51:1839.1269-95.288801698087Clb=4.0m/s t=-32.7C h=9.2% p=-1.0hPa 404.001 MHz Type=RS41-NG Radiosonde
KC0BQBU30350912022-12-07 11:51:1739.1262-95.2921771788046Clb=6.0m/s t=-32.4C h=9.1% p=-1.0hPa 404.000 MHz Type=RS41-NG ser=U3035091 Radiosonde auto_rx v1.5.5
N0GRP-1U30350912022-12-07 11:51:1639.1251-95.299802007981Clb=6.2m/s t=-273.0C h=-1.0% p=-1.0hPa 404.001 MHz Type=RS41 Radiosonde
KD0ZJV-10U30350912022-12-07 11:51:1539.1241-95.3069771857900Clb=7.8m/s t=-31.2C h=7.3% p=-1.0hPa 404.001 MHz Type=RS41-NG Radiosonde
N0GRP-1U30350912022-12-07 11:51:1439.1219-95.325861917686Clb=6.8m/s t=-273.0C h=-1.0% p=-1.0hPa 404.001 MHz Type=RS41 Radiosonde
KD0ZJV-10U30350912022-12-07 11:51:1339.1219-95.325861917686Clb=6.8m/s t=-30.5C h=11.8% p=-1.0hPa 404.001 MHz Type=RS41-NG Radiosonde
KD0ZJV-10U30350912022-12-07 11:51:0739.1202-95.3417771357504Clb=7.8m/s t=-30.4C h=14.5% p=-1.0hPa 404.001 MHz Type=RS41-NG Radiosonde
KC0BQBU30350912022-12-07 11:51:0439.12-95.3436871747473Clb=8.7m/s t=-30.2C h=13.5% p=-1.0hPa 404.000 MHz Type=RS41-NG ser=U3035091 Radiosonde auto_rx v1.5.5
KD0ZJV-10U30350912022-12-07 11:50:1839.118-95.3573781287294Clb=8.0m/s t=-29.8C h=11.8% p=-1.0hPa 404.001 MHz Type=RS41-NG Radiosonde
KC0BQBU30350912022-12-07 11:50:1239.1176-95.3586711547273Clb=3.4m/s t=-30.0C h=14.4% p=-1.0hPa 404.000 MHz Type=RS41-NG ser=U3035091 Radiosonde auto_rx v1.5.5
KD0ZJV-10U30350912022-12-07 11:49:2439.1158-95.3712761507099Clb=6.4m/s t=-28.8C h=32.8% p=-1.0hPa 404.001 MHz Type=RS41-NG Radiosonde
KC0BQBU30350912022-12-07 11:49:2039.1156-95.3722751567088Clb=6.0m/s t=-28.7C h=32.7% p=-1.0hPa 404.000 MHz Type=RS41-NG ser=U3035091 Radiosonde auto_rx v1.5.5
KD0ZJV-10U30350912022-12-07 11:48:2739.1138-95.3851711206890Clb=7.6m/s t=-27.5C h=25.4% p=-1.0hPa 404.001 MHz Type=RS41-NG Radiosonde
KC0BQBU30350912022-12-07 11:48:2639.1138-95.3851711206890Clb=7.6m/s t=-27.5C h=25.4% p=-1.0hPa 404.000 MHz Type=RS41-NG ser=U3035091 Radiosonde auto_rx v1.5.5
KC0BQBU30350912022-12-07 11:47:2939.112-95.3975791466690Clb=8.6m/s t=-26.1C h=25.9% p=-1.0hPa 404.000 MHz Type=RS41-NG ser=U3035091 Radiosonde auto_rx v1.5.5
KD0ZJV-10U30350912022-12-07 11:47:2739.112-95.3975791466690Clb=8.6m/s t=-26.1C h=25.9% p=-1.0hPa 404.001 MHz Type=RS41-NG Radiosonde
KC0BQBU30350912022-12-07 11:46:3039.11-95.4099811416496Clb=7.2m/s t=-24.4C h=25.2% p=-1.0hPa 404.000 MHz Type=RS41-NG ser=U3035091 Radiosonde auto_rx v1.5.5
KD0ZJV-10U30350912022-12-07 11:46:2739.11-95.4103831486489Clb=7.2m/s t=-24.3C h=24.7% p=-1.0hPa 404.001 MHz Type=RS41-NG Radiosonde
KC0BQBU30350912022-12-07 11:45:3539.1081-95.4221751466305Clb=8.1m/s t=-22.6C h=19.5% p=-1.0hPa 404.000 MHz Type=RS41-NG ser=U3035091 Radiosonde auto_rx v1.5.5
KD0ZJV-10U30350912022-12-07 11:45:2939.108-95.4231861356290Clb=6.9m/s t=-22.5C h=20.0% p=-1.0hPa 404.001 MHz Type=RS41-NG Radiosonde
KC0BQBU30350912022-12-07 11:44:4039.1061-95.4344861436117Clb=6.1m/s t=-20.9C h=24.4% p=-1.0hPa 404.000 MHz Type=RS41-NG ser=U3035091 Radiosonde auto_rx v1.5.5
KD0ZJV-10U30350912022-12-07 11:44:3239.106-95.4356791076101Clb=5.1m/s t=-20.8C h=26.1% p=-1.0hPa 404.001 MHz Type=RS41-NG Radiosonde
KC0BQBU30350912022-12-07 11:44:0039.1041-95.4471681315926Clb=6.8m/s t=-19.3C h=48.8% p=-1.0hPa 404.000 MHz Type=RS41-NG ser=U3035091 Radiosonde auto_rx v1.5.5
KC0BQBU30350912022-12-07 11:43:5239.1017-95.4601831175735Clb=6.0m/s t=-17.6C h=53.3% p=-1.0hPa 404.000 MHz Type=RS41-NG ser=U3035091 Radiosonde auto_rx v1.5.5
KD0ZJV-10U30350912022-12-07 11:43:5139.1012-95.4627741245696Clb=7.4m/s t=-17.4C h=41.6% p=-1.0hPa 404.001 MHz Type=RS41-NG Radiosonde
KC0BQBU30350912022-12-07 11:43:4539.0999-95.4723721265558Clb=5.9m/s t=-16.7C h=31.5% p=-1.0hPa 404.000 MHz Type=RS41-NG ser=U3035091 Radiosonde auto_rx v1.5.5
KD0ZJV-10U30350912022-12-07 11:43:4039.0996-95.4747731155520Clb=6.7m/s t=-16.4C h=28.0% p=-1.0hPa 404.001 MHz Type=RS41-NG Radiosonde
KC0BQBU30350912022-12-07 11:43:1939.0983-95.4842851115365Clb=6.9m/s t=-273.0C h=-1.0% p=-1.0hPa 404.000 MHz Type=RS41-NG ser=U3035091 Radiosonde auto_rx v1.5.5
KD0ZJV-10U30350912022-12-07 11:43:0939.0981-95.487186985310Clb=7.8m/s t=-15.4C h=23.6% p=-1.0hPa 404.001 MHz Type=RS41-NG Radiosonde
KC0BQBU30350912022-12-07 11:42:5239.0972-95.4953711195176Clb=5.2m/s t=-273.0C h=-1.0% p=-1.0hPa 404.000 MHz Type=RS41 ser=U3035091 Radiosonde auto_rx v1.5.5
KD0ZJV-10U30350912022-12-07 11:42:4339.0966-95.4985861205122Clb=6.1m/s t=-14.2C h=22.5% p=-1.0hPa 404.001 MHz Type=RS41-NG Radiosonde
KD0ZJV-10U30350912022-12-07 11:41:5339.0951-95.509372934919Clb=7.4m/s t=-12.4C h=20.5% p=-1.0hPa 404.001 MHz Type=RS41-NG Radiosonde
KD0ZJV-10U30350912022-12-07 11:41:0039.0933-95.5198701134722Clb=5.8m/s t=-10.8C h=25.1% p=-1.0hPa 404.001 MHz Type=RS41-NG Radiosonde
KD0ZJV-10U30350912022-12-07 11:40:0639.092-95.530676934519Clb=9.2m/s t=-9.3C h=30.3% p=-1.0hPa 404.001 MHz Type=RS41-NG Radiosonde
KD0ZJV-10U30350912022-12-07 11:39:2639.0902-95.540666984325Clb=7.3m/s t=-7.7C h=33.9% p=-1.0hPa 404.001 MHz Type=RS41-NG Radiosonde
KD0ZJV-10U30350912022-12-07 11:38:2739.088-95.550478854133Clb=8.1m/s t=-6.3C h=33.4% p=-1.0hPa 404.001 MHz Type=RS41-NG Radiosonde
KD0ZJV-10U30350912022-12-07 11:37:2439.0858-95.55964833947Clb=6.4m/s t=-6.4C h=39.9% p=-1.0hPa 404.001 MHz Type=RS41-NG Radiosonde
KD0ZJV-10U30350912022-12-07 11:36:2539.0834-95.5671641023760Clb=4.9m/s t=-5.1C h=45.3% p=-1.0hPa 404.001 MHz Type=RS41-NG Radiosonde
KD0ZJV-10U30350912022-12-07 11:35:4239.0811-95.5751771043561Clb=5.7m/s t=-3.9C h=46.4% p=-1.0hPa 404.001 MHz Type=RS41-NG Radiosonde
KD0ZJV-10U30350912022-12-07 11:35:1239.0795-95.582670673370Clb=6.1m/s t=-2.7C h=31.9% p=-1.0hPa 404.001 MHz Type=RS41-NG Radiosonde
KD0ZJV-10U30350912022-12-07 11:34:4339.0785-95.5996563196Clb=6.2m/s t=-1.9C h=44.8% p=-1.0hPa 404.001 MHz Type=RS41-NG Radiosonde
KD0ZJV-10U30350912022-12-07 11:34:4139.0777-95.596469653006Clb=5.7m/s t=-0.5C h=42.4% p=-1.0hPa 404.001 MHz Type=RS41-NG Radiosonde
KD0ZJV-10U30350912022-12-07 11:34:3339.077-95.602373592829Clb=6.8m/s t=0.5C h=44.8% p=-1.0hPa 404.001 MHz Type=RS41-NG Radiosonde
KD0ZJV-10U30350912022-12-07 11:33:4639.0767-95.607385392637Clb=9.3m/s t=1.9C h=42.8% p=-1.0hPa 404.001 MHz Type=RS41-NG Radiosonde
KD0ZJV-10U30350912022-12-07 11:32:5739.076-95.611890542419Clb=5.6m/s t=3.5C h=33.3% p=-1.0hPa 404.001 MHz Type=RS41-NG Radiosonde
KD0ZJV-10U30350912022-12-07 11:32:0739.0752-95.616369332213Clb=6.0m/s t=4.8C h=26.3% p=-1.0hPa 404.001 MHz Type=RS41-NG Radiosonde
KD0ZJV-10U30350912022-12-07 11:31:3439.075-95.6193107352040Clb=7.3m/s t=5.7C h=8.4% p=-1.0hPa 404.001 MHz Type=RS41-NG Radiosonde
KD0ZJV-10U30350912022-12-07 11:31:0339.0755-95.6207130171877Clb=8.6m/s t=6.5C h=7.7% p=-1.0hPa 404.001 MHz Type=RS41-NG Radiosonde
KD0ZJV-10U30350912022-12-07 11:30:3239.0766-95.6222171201693Clb=5.8m/s t=6.0C h=-1.0% p=-1.0hPa 404.001 MHz Type=RS41-NG Radiosonde
KD0ZJV-10U30350912022-12-07 11:30:0339.0769-95.623177151522Clb=8.6m/s t=-273.0C h=-1.0% p=-1.0hPa 404.001 MHz Type=RS41-NG Radiosonde